M I D A S
Marine Information and Data Acquisition System
Tripno 947 of the Zeeleeuw from 2005-07-07 06:26:53 to 2005-07-07 13:50:01
Back to CruiseResearch ActivitiesStationsMapUnderway DataData graphs

EquipmentUnitsComment
TimeDGPSUTC
LatitudeDGPSDM.mWGS84
LongitudeDGPSDM.mWGS84
TemperatureSBE03/SBE38deg celciusITS90
ConductivitySBE21S/mITS90
SalinitySBE21 Practical Salinity Units
ChlorophylAChelsea fluorimeterg/lCalibrated in Aceton
Missing or incorrect values are displayed as -999
Sea surface data collected by the RV Zeeleeuw from 2005-07-07 06:32:39 to 2005-07-07 14:01:09
                                                                                    Next 1000 lines
Time Latitude Longitude Temperature Conductivity Salinity ChlorophylA
2005-07-07 06:32:48 51°13.594 2°56.104 18.1186 1.448426 9.791593 8.387708
2005-07-07 06:32:53 51°13.595 2°56.102 18.1159 1.442345 9.747572 8.320289
2005-07-07 06:32:59 51°13.596 2°56.101 18.1152 1.443184 9.753543 7.983195
2005-07-07 06:33:04 51°13.596 2°56.099 18.1215 1.443184 9.753543 7.983195
2005-07-07 06:33:09 51°13.597 2°56.096 18.1313 1.447692 9.786729 8.28658
2005-07-07 06:33:13 51°13.597 2°56.094 18.1325 1.449055 9.796542 8.421418
2005-07-07 06:33:19 51°13.597 2°56.091 18.1343 1.452304 9.820353 8.219161
2005-07-07 06:33:24 51°13.598 2°56.09 18.1406 1.451361 9.813782 8.522546
2005-07-07 06:33:28 51°13.598 2°56.09 18.1476 1.433225 9.680978 8.252871
2005-07-07 06:33:34 51°13.598 2°56.092 18.1534 1.433225 9.680978 8.252871
2005-07-07 06:33:39 51°13.598 2°56.094 18.1587 1.407754 9.494906 8.28658
2005-07-07 06:33:44 51°13.598 2°56.097 18.1601 1.409431 9.506992 8.724802
2005-07-07 06:33:49 51°13.597 2°56.102 18.1607 1.480297 10.024972 8.724802
2005-07-07 06:33:54 51°13.596 2°56.106 18.1606 1.515317 10.281124 8.353999
2005-07-07 06:33:59 51°13.594 2°56.111 18.1645 1.545832 10.504791 8.387708
2005-07-07 06:34:04 51°13.592 2°56.117 18.1644 1.545832 10.504791 8.387708
2005-07-07 06:34:09 51°13.589 2°56.123 18.1653 1.606348 10.950497 8.320289
2005-07-07 06:34:14 51°13.587 2°56.127 18.1681 1.680306 11.497548 8.185452
2005-07-07 06:34:19 51°13.584 2°56.133 18.1718 1.745467 11.981323 8.28658
2005-07-07 06:34:24 51°13.582 2°56.138 18.1722 1.77926 12.232314 8.589965
2005-07-07 06:34:28 51°13.58 2°56.142 18.1678 1.787236 12.291335 8.589965
2005-07-07 06:34:34 51°13.577 2°56.148 18.1666 1.787236 12.291335 8.589965
2005-07-07 06:34:38 51°13.574 2°56.152 18.1603 1.784297 12.268495 8.994477
2005-07-07 06:34:44 51°13.57 2°56.157 18.1549 1.787971 12.295545 8.691093
2005-07-07 06:34:49 51°13.566 2°56.163 18.146 1.80277 12.405441 9.129315
2005-07-07 06:34:54 51°13.563 2°56.168 18.1373 1.824077 12.564418 8.85964
2005-07-07 06:34:59 51°13.559 2°56.175 18.1253 1.863232 12.857376 9.028187
2005-07-07 06:35:04 51°13.556 2°56.181 18.1147 1.863232 12.857376 9.028187
2005-07-07 06:35:09 51°13.553 2°56.189 18.1128 1.867221 12.887126 8.556255
2005-07-07 06:35:14 51°13.551 2°56.197 18.1069 1.851369 12.768284 8.691093
2005-07-07 06:35:18 51°13.55 2°56.203 18.0977 1.805708 12.426797 8.724802
2005-07-07 06:35:24 51°13.55 2°56.212 18.0916 1.736967 11.914779 8.82593
2005-07-07 06:35:28 51°13.549 2°56.219 18.0898 1.676529 11.46667 8.724802
2005-07-07 06:35:33 51°13.548 2°56.224 18.0852 1.676529 11.46667 8.724802
2005-07-07 06:35:39 51°13.549 2°56.229 18.0784 1.60446 10.934808 8.724802
2005-07-07 06:35:44 51°13.549 2°56.231 18.0778 1.505041 10.20465 8.623674
2005-07-07 06:35:48 51°13.549 2°56.232 18.0714 1.431548 9.667862 8.724802
2005-07-07 06:35:53 51°13.55 2°56.233 18.0698 1.377883 9.277254 8.353999
2005-07-07 06:35:59 51°13.549 2°56.231 18.0606 1.305684 8.754169 8.353999
2005-07-07 06:36:04 51°13.548 2°56.229 18.0614 1.305684 8.754169 8.353999
2005-07-07 06:36:09 51°13.548 2°56.226 18.0596 1.244399 8.311908 8.353999
2005-07-07 06:36:14 51°13.548 2°56.223 18.0577 1.184491 7.88182 8.387708
2005-07-07 06:36:20 51°13.549 2°56.221 18.0645 1.123237 7.443669 8.82593
2005-07-07 06:36:24 51°13.549 2°56.222 18.0813 1.078015 7.121554 8.893349
2005-07-07 06:36:29 51°13.55 2°56.225 18.0889 1.033325 6.804793 8.455127
2005-07-07 06:36:34 51°13.551 2°56.228 18.0974 1.033325 6.804793 8.455127
2005-07-07 06:36:39 51°13.552 2°56.23 18.0992 0.979961 6.42783 8.219161
2005-07-07 06:36:44 51°13.552 2°56.231 18.1031 0.93979 6.145649 8.28658
2005-07-07 06:36:49 51°13.552 2°56.23 18.1064 0.919185 6.001444 8.623674
2005-07-07 06:36:54 51°13.551 2°56.228 18.1022 0.909563 5.934113 8.623674
2005-07-07 06:36:59 51°13.55 2°56.224 18.0994 0.991051 6.507324 8.219161
2005-07-07 06:37:04 51°13.548 2°56.221 18.0944 0.991051 6.507324 8.219161
2005-07-07 06:37:09 51°13.545 2°56.216 18.0925 1.127948 7.479711 8.589965
2005-07-07 06:37:15 51°13.543 2°56.211 18.0974 1.24157 8.294676 8.556255
2005-07-07 06:37:20 51°13.541 2°56.207 18.1008 1.308408 8.777142 8.724802
2005-07-07 06:37:24 51°13.54 2°56.205 18.1036 1.355351 9.116955 8.657383
2005-07-07 06:37:29 51°13.54 2°56.205 18.1068 1.377883 9.280491 8.994477
2005-07-07 06:37:34 51°13.541 2°56.205 18.1072 1.377883 9.280491 8.994477
2005-07-07 06:37:39 51°13.543 2°56.208 18.1053 1.357447 9.131579 9.264153
2005-07-07 06:37:44 51°13.545 2°56.209 18.1049 1.337118 8.98429 8.623674
2005-07-07 06:37:49 51°13.546 2°56.21 18.1022 1.347282 9.05854 8.589965
2005-07-07 06:37:53 51°13.547 2°56.21 18.1031 1.384696 9.331158 8.556255
2005-07-07 06:37:59 51°13.546 2°56.209 18.0918 1.42746 9.643168 9.129315
2005-07-07 06:38:04 51°13.544 2°56.207 18.0907 1.42746 9.643168 9.129315
2005-07-07 06:38:08 51°13.542 2°56.205 18.0854 1.509655 10.245545 8.691093
2005-07-07 06:38:13 51°13.539 2°56.202 18.0852 1.5688 10.681512 8.522546
2005-07-07 06:38:20 51°13.536 2°56.198 18.0986 1.566912 10.667192 9.297862
2005-07-07 06:38:24 51°13.536 2°56.196 18.1111 1.536604 10.443881 9.365281
2005-07-07 06:38:29 51°13.536 2°56.196 18.1213 1.502839 10.195041 9.129315
2005-07-07 06:38:34 51°13.538 2°56.197 18.1284 1.502839 10.195041 9.129315
2005-07-07 06:38:40 51°13.541 2°56.198 18.1277 1.437943 9.719066 9.634956
2005-07-07 06:38:44 51°13.544 2°56.198 18.1239 1.357762 9.134983 9.466409
2005-07-07 06:38:49 51°13.545 2°56.199 18.1202 1.290806 8.649652 9.533828
2005-07-07 06:38:54 51°13.546 2°56.199 18.1158 1.285149 8.608812 8.893349
2005-07-07 06:38:59 51°13.545 2°56.198 18.1136 1.369499 9.220336 9.365281
2005-07-07 06:39:04 51°13.543 2°56.198 18.1076 1.369499 9.220336 9.365281
2005-07-07 06:39:09 51°13.541 2°56.197 18.1009 1.483652 10.05399 9.264153
2005-07-07 06:39:13 51°13.538 2°56.196 18.0973 1.587364 10.816116 9.061896
2005-07-07 06:39:20 51°13.535 2°56.194 18.0987 1.632572 11.149606 9.163024
2005-07-07 06:39:25 51°13.536 2°56.194 18.1043 1.623446 11.081552 9.264153
2005-07-07 06:39:29 51°13.538 2°56.193 18.1116 1.587993 10.819637 9.331571
2005-07-07 06:39:33 51°13.541 2°56.193 18.1172 1.587993 10.819637 9.331571
2005-07-07 06:39:40 51°13.545 2°56.19 18.1205 1.552544 10.557414 9.129315
2005-07-07 06:39:44 51°13.548 2°56.188 18.1181 1.510389 10.247728 9.196734
2005-07-07 06:39:50 51°13.55 2°56.187 18.1161 1.425364 9.625978 9.365281
2005-07-07 06:39:54 51°13.551 2°56.186 18.1096 1.361953 9.164076 9.230443
2005-07-07 06:39:59 51°13.551 2°56.185 18.1074 1.359962 9.149734 9.163024
2005-07-07 06:40:04 51°13.55 2°56.186 18.1035 1.359962 9.149734 9.163024
2005-07-07 06:40:09 51°13.548 2°56.188 18.0972 1.41027 9.516439 9.297862
2005-07-07 06:40:14 51°13.546 2°56.19 18.0992 1.489523 10.095723 9.365281
2005-07-07 06:40:19 51°13.544 2°56.193 18.1033 1.529578 10.389553 8.994477
2005-07-07 06:40:24 51°13.543 2°56.195 18.1129 1.529263 10.387054 9.163024
2005-07-07 06:40:29 51°13.542 2°56.197 18.1203 1.50955 10.242092 9.702375
2005-07-07 06:40:33 51°13.542 2°56.197 18.1269 1.50955 10.242092 9.702375
2005-07-07 06:40:39 51°13.543 2°56.195 18.1287 1.453667 9.832227 9.230443
2005-07-07 06:40:44 51°13.545 2°56.192 18.1286 1.39067 9.372467 9.163024
2005-07-07 06:40:49 51°13.547 2°56.187 18.1246 1.33869 8.994777 9.601247
2005-07-07 06:40:53 51°13.548 2°56.183 18.1221 1.316266 8.832333 9.500118
2005-07-07 06:40:59 51°13.551 2°56.175 18.1177 1.372957 9.243933 9.769794
2005-07-07 06:41:04 51°13.553 2°56.166 18.1155 1.372957 9.243933 9.769794
2005-07-07 06:41:09 51°13.555 2°56.157 18.1108 1.467716 9.935421 9.769794
2005-07-07 06:41:14 51°13.557 2°56.145 18.1082 1.569009 10.679706 9.264153
2005-07-07 06:41:19 51°13.559 2°56.136 18.109 1.634461 11.162832 10.140597
2005-07-07 06:41:24 51°13.562 2°56.124 18.1084 1.664149 11.383044 9.634956
2005-07-07 06:41:29 51°13.565 2°56.112 18.109 1.653658 11.304914 9.500118
2005-07-07 06:41:34 51°13.569 2°56.101 18.1061 1.653658 11.304914 9.500118
2005-07-07 06:41:39 51°13.574 2°56.088 18.1073 1.625544 11.09691 9.736084
2005-07-07 06:41:44 51°13.578 2°56.075 18.1036 1.598901 10.899957 9.567537
2005-07-07 06:41:48 51°13.582 2°56.065 18.1074 1.554432 10.572634 9.39899
2005-07-07 06:41:54 51°13.587 2°56.051 18.1043 1.530522 10.396688 9.196734
2005-07-07 06:42:00 51°13.593 2°56.036 18.1057 1.517729 10.302825 8.994477
2005-07-07 06:42:04 51°13.598 2°56.026 18.1078 1.517729 10.302825 8.994477
2005-07-07 06:42:09 51°13.603 2°56.013 18.1114 1.52035 10.322307 9.331571
2005-07-07 06:42:14 51°13.609 2°55.998 18.1086 1.5128 10.267265 8.994477
2005-07-07 06:42:19 51°13.614 2°55.984 18.1113 1.492459 10.117827 9.39899
2005-07-07 06:42:24 51°13.62 2°55.972 18.1057 1.475474 9.993232 9.668665
2005-07-07 06:42:29 51°13.626 2°55.957 18.1019 1.460167 9.88126 9.634956
2005-07-07 06:42:33 51°13.631 2°55.946 18.1001 1.460167 9.88126 9.634956
2005-07-07 06:42:38 51°13.637 2°55.932 18.0972 1.444652 9.767699 9.331571
2005-07-07 06:42:44 51°13.644 2°55.918 18.0916 1.435637 9.70167 9.702375
2005-07-07 06:42:49 51°13.651 2°55.902 18.0868 1.433959 9.688714 9.365281
2005-07-07 06:42:53 51°13.656 2°55.891 18.0894 1.426202 9.631946 9.4327
2005-07-07 06:42:59 51°13.662 2°55.875 18.087 1.400836 9.446361 9.39899
2005-07-07 06:43:04 51°13.668 2°55.862 18.0918 1.400836 9.446361 9.39899
2005-07-07 06:43:09 51°13.675 2°55.846 18.094 1.376311 9.268058 9.297862
2005-07-07 06:43:14 51°13.681 2°55.834 18.0934 1.322343 8.875995 9.095606
2005-07-07 06:43:19 51°13.688 2°55.819 18.0959 1.266187 8.469781 9.230443
2005-07-07 06:43:24 51°13.694 2°55.807 18.0954 1.21748 8.118916 9.230443
2005-07-07 06:43:29 51°13.701 2°55.792 18.0939 1.1847 7.883737 9.4327
2005-07-07 06:43:33 51°13.707 2°55.781 18.0885 1.1847 7.883737 9.4327
2005-07-07 06:43:39 51°13.716 2°55.766 18.0892 1.167526 7.760811 9.095606
2005-07-07 06:43:44 51°13.723 2°55.754 18.0955 1.172029 7.79286 9.668665
2005-07-07 06:43:48 51°13.729 2°55.743 18.0918 1.182815 7.870466 9.803503
2005-07-07 06:43:53 51°13.737 2°55.731 18.0911 1.184491 7.882232 9.870922
2005-07-07 06:43:59 51°13.747 2°55.716 18.1026 1.177893 7.834424 9.567537
2005-07-07 06:44:04 51°13.755 2°55.705 18.1005 1.177893 7.834424 9.567537
2005-07-07 06:44:09 51°13.765 2°55.693 18.1092 1.163966 7.734589 9.769794
2005-07-07 06:44:13 51°13.771 2°55.686 18.1161 1.148993 7.627503 9.4327
2005-07-07 06:44:19 51°13.782 2°55.674 18.1233 1.141036 7.570503 9.567537
2005-07-07 06:44:24 51°13.792 2°55.665 18.1259 1.14648 7.609366 9.331571
2005-07-07 06:44:29 51°13.802 2°55.655 18.1302 1.16428 7.736843 9.39899
2005-07-07 06:44:33 51°13.81 2°55.648 18.1381 1.16428 7.736843 9.39899
2005-07-07 06:44:39 51°13.821 2°55.64 18.1402 1.182396 7.86677 9.129315
2005-07-07 06:44:44 51°13.831 2°55.632 18.1447 1.212034 8.079121 9.567537
2005-07-07 06:44:49 51°13.842 2°55.624 18.1519 1.255188 8.389539 9.837212
2005-07-07 06:44:53 51°13.851 2°55.618 18.1592 1.319619 8.854668 9.365281
2005-07-07 06:44:59 51°13.862 2°55.609 18.1688 1.376625 9.267925 9.769794
2005-07-07 06:45:04 51°13.872 2°55.601 18.1718 1.376625 9.267925 9.769794
2005-07-07 06:45:09 51°13.882 2°55.593 18.1754 1.432596 9.675363 9.97205
2005-07-07 06:45:13 51°13.892 2°55.586 18.1797 1.499274 10.162967 9.196734
2005-07-07 06:45:19 51°13.904 2°55.577 18.1861 1.54793 10.519888 9.668665
2005-07-07 06:45:24 51°13.914 2°55.57 18.1895 1.59995 10.902583 9.466409
2005-07-07 06:45:29 51°13.926 2°55.562 18.1967 1.658694 11.336182 9.39899
2005-07-07 06:45:34 51°13.935 2°55.555 18.1998 1.658694 11.336182 9.39899
2005-07-07 06:45:39 51°13.947 2°55.547 18.202 1.729307 11.859729 9.500118
2005-07-07 06:45:44 51°13.957 2°55.539 18.2018 1.796577 12.359516 9.668665
2005-07-07 06:45:49 51°13.968 2°55.532 18.2068 1.851999 12.773235 10.106888
2005-07-07 06:45:53 51°13.977 2°55.526 18.2071 1.884963 13.019386 9.803503
2005-07-07 06:45:59 51°13.99 2°55.517 18.209 1.9173 13.260997 9.870922
2005-07-07 06:46:04 51°14 2°55.51 18.2141 1.9173 13.260997 9.870922
2005-07-07 06:46:08 51°14.008 2°55.505 18.2118 1.948275 13.492477 9.769794
2005-07-07 06:46:13 51°14.02 2°55.497 18.2104 1.984504 13.764252 9.365281
2005-07-07 06:46:19 51°14.033 2°55.488 18.2097 2.01433 13.988742 9.095606
2005-07-07 06:46:24 51°14.043 2°55.481 18.2066 2.050881 14.264335 9.803503
2005-07-07 06:46:28 51°14.052 2°55.474 18.2062 2.082603 14.504483 10.241725
2005-07-07 06:46:33 51°14.065 2°55.465 18.2054 2.082603 14.504483 10.241725
2005-07-07 06:46:39 51°14.079 2°55.455 18.1998 2.125989 14.833331 9.466409
2005-07-07 06:46:44 51°14.089 2°55.447 18.1991 2.179888 15.243432 9.904631
2005-07-07 06:46:48 51°14.099 2°55.44 18.192 2.221604 15.562174 10.309144
2005-07-07 06:46:53 51°14.113 2°55.43 18.1844 2.254286 15.81231 9.533828
2005-07-07 06:46:59 51°14.126 2°55.42 18.1738 2.272047 15.948847 9.567537
2005-07-07 06:47:04 51°14.139 2°55.41 18.1638 2.272047 15.948847 9.567537
2005-07-07 06:47:09 51°14.151 2°55.4 18.1534 2.274254 15.965789 9.736084
2005-07-07 06:47:14 51°14.163 2°55.388 18.1377 2.259015 15.849408 9.196734
2005-07-07 06:47:19 51°14.175 2°55.376 18.1251 2.226122 15.598129 8.893349
2005-07-07 06:47:24 51°14.187 2°55.363 18.1112 2.205842 15.444248 8.927059
2005-07-07 06:47:29 51°14.199 2°55.349 18.1031 2.159714 15.094148 9.028187
2005-07-07 06:47:34 51°14.21 2°55.335 18.0977 2.159714 15.094148 9.028187
2005-07-07 06:47:39 51°14.222 2°55.319 18.088 2.107079 14.695761 8.994477
2005-07-07 06:47:44 51°14.232 2°55.305 18.085 2.0492 14.259041 8.893349
2005-07-07 06:47:49 51°14.243 2°55.287 18.0772 1.99154 13.825659 8.85964
2005-07-07 06:47:53 51°14.252 2°55.274 18.0713 1.92654 13.338775 8.927059
2005-07-07 06:47:59 51°14.264 2°55.253 18.0708 1.866591 12.891385 8.927059
2005-07-07 06:48:04 51°14.273 2°55.238 18.0711 1.866591 12.891385 8.927059
2005-07-07 06:48:08 51°14.28 2°55.223 18.0738 1.798571 12.385026 8.85964
2005-07-07 06:48:14 51°14.291 2°55.203 18.0768 1.729727 11.87425 8.792221
2005-07-07 06:48:19 51°14.302 2°55.184 18.0809 1.67506 11.469156 8.893349
2005-07-07 06:48:24 51°14.31 2°55.168 18.0856 1.633412 11.161869 8.82593
2005-07-07 06:48:29 51°14.32 2°55.151 18.0904 1.585161 10.806429 8.758512
2005-07-07 06:48:33 51°14.328 2°55.135 18.0959 1.585161 10.806429 8.758512
2005-07-07 06:48:39 51°14.339 2°55.116 18.1033 1.548244 10.535439 8.691093
2005-07-07 06:48:44 51°14.348 2°55.098 18.1096 1.521713 10.340286 8.927059
2005-07-07 06:48:49 51°14.359 2°55.079 18.1123 1.508501 10.242957 8.960768
2005-07-07 06:48:54 51°14.368 2°55.063 18.1176 1.503259 10.20436 8.893349
2005-07-07 06:49:00 51°14.38 2°55.042 18.1212 1.513849 10.281443 8.758512
2005-07-07 06:49:04 51°14.39 2°55.025 18.1208 1.513849 10.281443 8.758512
2005-07-07 06:49:09 51°14.4 2°55.006 18.1224 1.534087 10.429696 8.691093
2005-07-07 06:49:13 51°14.408 2°54.992 18.1276 1.56817 10.680032 8.792221
2005-07-07 06:49:19 51°14.421 2°54.973 18.1329 1.616628 11.03719 8.82593
2005-07-07 06:49:24 51°14.433 2°54.957 18.1313 1.679572 11.502924 8.927059
2005-07-07 06:49:29 51°14.447 2°54.939 18.1264 1.751239 12.035959 8.792221
2005-07-07 06:49:34 51°14.459 2°54.925 18.1147 1.751239 12.035959 8.792221
2005-07-07 06:49:39 51°14.473 2°54.908 18.098 1.820089 12.550061 9.230443
2005-07-07 06:49:44 51°14.485 2°54.895 18.0808 1.870266 12.926011 8.724802
2005-07-07 06:49:48 51°14.498 2°54.883 18.0648 1.944916 13.487344 8.82593
2005-07-07 06:49:52 51°14.509 2°54.874 18.0506 2.039222 14.201401 9.095606
2005-07-07 06:49:59 51°14.531 2°54.855 18.0286 2.158559 15.108514 9.500118
2005-07-07 06:50:04 51°14.545 2°54.844 18.0176 2.158559 15.108514 9.500118
2005-07-07 06:50:09 51°14.562 2°54.83 17.9902 2.374636 16.76962 9.365281
2005-07-07 06:50:13 51°14.574 2°54.82 17.982 2.542342 18.073895 9.163024
2005-07-07 06:50:19 51°14.594 2°54.806 17.9721 2.757138 19.760919 8.994477
2005-07-07 06:50:24 51°14.608 2°54.794 17.9662 2.952134 21.311339 8.893349
2005-07-07 06:50:29 51°14.624 2°54.782 17.9591 3.119721 22.657874 8.927059
2005-07-07 06:50:34 51°14.638 2°54.77 17.9514 3.119721 22.657874 8.927059
2005-07-07 06:50:39 51°14.654 2°54.76 17.9492 3.259134 23.788861 8.994477
2005-07-07 06:50:45 51°14.672 2°54.745 17.9408 3.356763 24.589269 9.4327
2005-07-07 06:50:49 51°14.684 2°54.736 17.9433 3.449034 25.349657 8.85964
2005-07-07 06:50:53 51°14.698 2°54.726 17.9348 3.523303 25.966611 9.028187
2005-07-07 06:50:59 51°14.714 2°54.713 17.9279 3.56692 26.329017 8.758512
2005-07-07 06:51:04 51°14.729 2°54.702 17.9256 3.56692 26.329017 8.758512
2005-07-07 06:51:09 51°14.744 2°54.689 17.9188 3.590626 26.532373 8.758512
2005-07-07 06:51:13 51°14.758 2°54.677 17.9122 3.619707 26.77684 8.691093
2005-07-07 06:51:19 51°14.775 2°54.662 17.9055 3.635406 26.909927 8.219161
2005-07-07 06:51:24 51°14.792 2°54.647 17.9031 3.653214 27.060933 8.522546
2005-07-07 06:51:29 51°14.807 2°54.634 17.8983 3.662487 27.141445 8.85964
2005-07-07 06:51:34 51°14.821 2°54.622 17.8883 3.662487 27.141445 8.85964
2005-07-07 06:51:39 51°14.835 2°54.609 17.8841 3.671022 27.214505 8.85964
2005-07-07 06:51:44 51°14.851 2°54.597 17.8799 3.682508 27.314295 8.85964
2005-07-07 06:51:49 51°14.867 2°54.583 17.8772 3.60601 26.68758 9.331571
2005-07-07 06:51:55 51°14.884 2°54.568 17.8666 3.710538 27.556304 8.85964
2005-07-07 06:51:59 51°14.898 2°54.556 17.8625 3.724132 27.667408 8.387708
2005-07-07 06:52:04 51°14.911 2°54.545 17.8593 3.724132 27.667408 8.387708
2005-07-07 06:52:08 51°14.924 2°54.535 17.8555 3.745103 27.849285 8.893349
2005-07-07 06:52:14 51°14.941 2°54.522 17.8516 3.787363 28.199999 8.994477
2005-07-07 06:52:20 51°14.958 2°54.508 17.8498 3.852918 28.747495 8.522546
2005-07-07 06:52:24 51°14.97 2°54.498 17.8403 3.91247 29.244601 8.657383
2005-07-07 06:52:29 51°14.985 2°54.486 17.8353 3.976665 29.784301 8.691093
2005-07-07 06:52:33 51°14.998 2°54.475 17.8218 3.976665 29.784301 8.691093
2005-07-07 06:52:39 51°15.014 2°54.461 17.8181 4.044027 30.35311 8.589965
2005-07-07 06:52:44 51°15.029 2°54.449 17.8121 4.094632 30.781004 8.28658
2005-07-07 06:52:49 51°15.045 2°54.434 17.8008 4.135961 31.132544 8.758512
2005-07-07 06:52:54 51°15.06 2°54.421 17.7962 4.165377 31.382943 8.522546
2005-07-07 06:52:59 51°15.075 2°54.409 17.7928 4.186886 31.568831 8.657383
2005-07-07 06:53:04 51°15.088 2°54.397 17.7886 4.186886 31.568831 8.657383
2005-07-07 06:53:09 51°15.102 2°54.384 17.7868 4.218308 31.83616 8.960768
2005-07-07 06:53:13 51°15.116 2°54.372 17.7848 4.238553 32.013588 8.758512
2005-07-07 06:53:19 51°15.133 2°54.358 17.7822 4.24857 32.104342 8.758512
2005-07-07 06:53:24 51°15.148 2°54.346 17.78 4.25785 32.191222 8.758512
2005-07-07 06:53:29 51°15.165 2°54.332 17.7848 4.268184 32.284219 8.691093
2005-07-07 06:53:33 51°15.177 2°54.322 17.7899 4.268184 32.284219 8.691093
2005-07-07 06:53:39 51°15.194 2°54.307 17.7892 4.272929 32.328328 8.82593
2005-07-07 06:53:44 51°15.211 2°54.291 17.7848 4.280205 32.395001 8.556255
2005-07-07 06:53:49 51°15.226 2°54.279 17.7802 4.28959 32.478974 8.421418
2005-07-07 06:53:54 51°15.241 2°54.267 17.7765 4.295601 32.532712 8.758512
2005-07-07 06:53:59 51°15.255 2°54.255 17.7722 4.30583 32.621595 8.623674
2005-07-07 06:54:04 51°15.271 2°54.243 17.7686 4.30583 32.621595 8.623674
2005-07-07 06:54:09 51°15.287 2°54.23 17.7629 4.318168 32.724314 8.960768
2005-07-07 06:54:14 51°15.303 2°54.219 17.7615 4.32692 32.799615 8.589965
2005-07-07 06:54:19 51°15.317 2°54.205 17.7603 4.333248 32.854977 8.758512
2005-07-07 06:54:24 51°15.331 2°54.194 17.7516 4.345797 32.960175 8.927059
2005-07-07 06:54:29 51°15.346 2°54.18 17.74 4.357819 33.065651 8.488836
2005-07-07 06:54:34 51°15.361 2°54.166 17.7343 4.357819 33.065651 8.488836
2005-07-07 06:54:39 51°15.377 2°54.152 17.7276 4.364147 33.122279 8.657383
2005-07-07 06:54:44 51°15.391 2°54.139 17.722 4.36942 33.170569 8.657383
2005-07-07 06:54:49 51°15.408 2°54.125 17.7169 4.380388 33.268423 8.421418
2005-07-07 06:54:55 51°15.424 2°54.11 17.7084 4.385133 33.312883 8.488836
2005-07-07 06:54:59 51°15.436 2°54.099 17.7098 4.389352 33.350506 9.163024
2005-07-07 06:55:04 51°15.45 2°54.087 17.702 4.389352 33.350506 9.163024
2005-07-07 06:55:09 51°15.468 2°54.071 17.6982 4.39473 33.402162 8.724802
2005-07-07 06:55:13 51°15.48 2°54.06 17.6892 4.401164 33.462816 8.488836
2005-07-07 06:55:19 51°15.498 2°54.043 17.6823 4.406331 33.512739 8.320289
2005-07-07 06:55:24 51°15.511 2°54.031 17.6784 4.405593 33.51422 8.151742
2005-07-07 06:55:29 51°15.528 2°54.016 17.673 4.408441 33.544431 8.960768
2005-07-07 06:55:34 51°15.542 2°54.004 17.6693 4.408441 33.544431 8.960768
2005-07-07 06:55:39 51°15.559 2°53.989 17.6684 4.408863 33.553405 9.061896
2005-07-07 06:55:44 51°15.572 2°53.976 17.6679 4.409285 33.560586 8.320289
2005-07-07 06:55:49 51°15.59 2°53.961 17.6661 4.408969 33.568068 9.061896
2005-07-07 06:55:53 51°15.601 2°53.949 17.6628 4.411605 33.589926 8.623674
2005-07-07 06:55:59 51°15.62 2°53.934 17.6558 4.415613 33.631264 8.556255
2005-07-07 06:56:04 51°15.633 2°53.921 17.6519 4.415613 33.631264 8.556255
2005-07-07 06:56:09 51°15.649 2°53.908 17.647 4.416668 33.645054 8.623674
2005-07-07 06:56:13 51°15.662 2°53.895 17.6362 4.419621 33.677435 8.724802
2005-07-07 06:56:19 51°15.68 2°53.881 17.6308 4.419093 33.674742 8.657383
2005-07-07 06:56:24 51°15.694 2°53.867 17.6223 4.418882 33.675348 8.657383
2005-07-07 06:56:29 51°15.711 2°53.852 17.6195 4.418144 33.669655 8.455127
2005-07-07 06:56:34 51°15.726 2°53.838 17.6166 4.418144 33.669655 8.455127
2005-07-07 06:56:39 51°15.739 2°53.826 17.6157 4.417722 33.669665 8.623674
2005-07-07 06:56:44 51°15.755 2°53.811 17.6165 4.417617 33.674778 8.556255
2005-07-07 06:56:49 51°15.771 2°53.796 17.6234 4.417723 33.679888 8.421418
2005-07-07 06:56:53 51°15.782 2°53.787 17.6295 4.419937 33.700586 8.724802
2005-07-07 06:56:59 51°15.8 2°53.769 17.6345 4.420676 33.715919 8.994477
2005-07-07 06:57:04 51°15.815 2°53.755 17.6421 4.420676 33.715919 8.994477
2005-07-07 06:57:09 51°15.83 2°53.742 17.6483 4.422047 33.734853 8.589965
2005-07-07 06:57:14 51°15.847 2°53.726 17.6578 4.421309 33.734581 8.657383
2005-07-07 06:57:18 51°15.859 2°53.716 17.6656 4.425949 33.772389 8.691093
2005-07-07 06:57:24 51°15.876 2°53.7 17.6757 4.425527 33.771806 8.320289
2005-07-07 06:57:29 51°15.892 2°53.687 17.685 4.423418 33.751382 8.623674
2005-07-07 06:57:34 51°15.905 2°53.675 17.6937 4.423418 33.751382 8.623674
2005-07-07 06:57:39 51°15.921 2°53.66 17.7064 4.420676 33.724356 8.691093
2005-07-07 06:57:44 51°15.935 2°53.648 17.7176 4.419516 33.710838 8.387708
2005-07-07 06:57:49 51°15.95 2°53.634 17.7249 4.419621 33.708124 8.589965
2005-07-07 06:57:54 51°15.965 2°53.62 17.7346 4.418988 33.696101 8.691093
2005-07-07 06:58:00 51°15.982 2°53.605 17.745 4.420465 33.69726 8.488836
2005-07-07 06:58:04 51°15.993 2°53.593 17.7517 4.420465 33.69726 8.488836
2005-07-07 06:58:09 51°16.01 2°53.578 17.7561 4.420254 33.688843 8.657383
2005-07-07 06:58:13 51°16.022 2°53.566 17.7684 4.42057 33.683122 8.28658
2005-07-07 06:58:19 51°16.041 2°53.55 17.7765 4.420886 33.679207 8.488836
2005-07-07 06:58:24 51°16.056 2°53.536 17.7823 4.42173 33.675582 8.28658
2005-07-07 06:58:29 51°16.072 2°53.524 17.7895 4.419304 33.647112 8.353999
2005-07-07 06:58:33 51°16.083 2°53.516 17.8 4.419304 33.647112 8.353999
2005-07-07 06:58:39 51°16.103 2°53.5 17.8076 4.419409 33.637213 8.623674
2005-07-07 06:58:44 51°16.117 2°53.489 17.8183 4.419303 33.63032 8.893349
2005-07-07 06:58:49 51°16.134 2°53.477 17.8253 4.417721 33.607868 8.85964
2005-07-07 06:58:53 51°16.147 2°53.468 17.8328 4.416034 33.586327 8.522546
2005-07-07 06:58:59 51°16.165 2°53.454 17.8409 4.415401 33.571376 8.185452
2005-07-07 06:59:04 51°16.181 2°53.442 17.8471 4.415401 33.571376 8.185452
2005-07-07 06:59:09 51°16.198 2°53.428 17.854 4.416561 33.57168 8.050614
2005-07-07 06:59:13 51°16.211 2°53.417 17.86 4.413608 33.540003 8.421418
2005-07-07 06:59:19 51°16.23 2°53.401 17.8659 4.410233 33.504757 8.387708
2005-07-07 06:59:24 51°16.244 2°53.39 17.869 4.409389 33.485078 8.151742
2005-07-07 06:59:29 51°16.261 2°53.376 17.8735 4.41076 33.49196 8.084324
2005-07-07 06:59:34 51°16.277 2°53.362 17.8799 4.41076 33.49196 8.084324
2005-07-07 06:59:39 51°16.293 2°53.349 17.8848 4.407279 33.454668 8.488836
2005-07-07 06:59:44 51°16.307 2°53.337 17.8881 4.411498 33.482754 8.252871
2005-07-07 06:59:49 51°16.324 2°53.322 17.8932 4.412658 33.488438 8.353999
2005-07-07 06:59:54 51°16.338 2°53.31 17.8964 4.413185 33.485181 8.320289
2005-07-07 07:00:00 51°16.358 2°53.295 17.8979 4.415083 33.493561 8.28658
2005-07-07 07:00:04 51°16.371 2°53.285 17.8978 4.415083 33.493561 8.28658
2005-07-07 07:00:09 51°16.387 2°53.272 17.8968 4.414661 33.486413 8.421418
2005-07-07 07:00:13 51°16.4 2°53.261 17.8948 4.414556 33.479574 8.455127
2005-07-07 07:00:19 51°16.416 2°53.247 17.8934 4.416349 33.49003 8.691093
2005-07-07 07:00:24 51°16.431 2°53.233 17.8915 4.417298 33.493921 8.118033
2005-07-07 07:00:29 51°16.446 2°53.222 17.8902 4.420356 33.513323 8.084324
2005-07-07 07:00:33 51°16.461 2°53.212 17.8884 4.420356 33.513323 8.084324
2005-07-07 07:00:39 51°16.479 2°53.197 17.8878 4.417614 33.490067 8.421418
2005-07-07 07:00:44 51°16.493 2°53.186 17.8855 4.421305 33.517806 8.28658
2005-07-07 07:00:49 51°16.51 2°53.172 17.8815 4.42236 33.53032 8.28658
2005-07-07 07:00:54 51°16.523 2°53.159 17.8768 4.425945 33.55657 8.758512
2005-07-07 07:00:59 51°16.54 2°53.144 17.8717 4.426895 33.565813 8.050614
2005-07-07 07:01:04 51°16.554 2°53.131 17.8694 4.426895 33.565813 8.050614
2005-07-07 07:01:09 51°16.571 2°53.116 17.8672 4.426367 33.564317 8.488836
2005-07-07 07:01:14 51°16.584 2°53.103 17.8661 4.429004 33.587282 8.488836
2005-07-07 07:01:19 51°16.6 2°53.091 17.8664 4.430481 33.601002 8.185452
2005-07-07 07:01:24 51°16.616 2°53.075 17.8632 4.433223 33.623675 8.556255
2005-07-07 07:01:29 51°16.632 2°53.061 17.8579 4.434488 33.637399 8.589965
2005-07-07 07:01:34 51°16.645 2°53.049 17.8519 4.434488 33.637399 8.589965
2005-07-07 07:01:39 51°16.662 2°53.035 17.8451 4.43723 33.664856 8.219161
2005-07-07 07:01:44 51°16.677 2°53.021 17.8426 4.436281 33.66098 8.353999
2005-07-07 07:01:49 51°16.692 2°53.009 17.8354 4.439129 33.686952 8.353999
2005-07-07 07:01:54 51°16.705 2°52.996 17.8297 4.441238 33.705462 8.185452
2005-07-07 07:02:00 51°16.723 2°52.981 17.8285 4.443453 33.725469 8.252871
2005-07-07 07:02:04 51°16.734 2°52.97 17.8273 4.443453 33.725469 8.252871
2005-07-07 07:02:09 51°16.75 2°52.957 17.8233 4.442188 33.716516 8.252871
2005-07-07 07:02:13 51°16.763 2°52.945 17.8182 4.443453 33.732057 8.353999
2005-07-07 07:02:19 51°16.782 2°52.929 17.812 4.444719 33.745805 8.185452
2005-07-07 07:02:24 51°16.795 2°52.917 17.807 4.444824 33.753295 7.949486
2005-07-07 07:02:29 51°16.812 2°52.902 17.8031 4.445985 33.769153 8.219161
2005-07-07 07:02:33 51°16.824 2°52.891 17.7899 4.445985 33.769153 8.219161
2005-07-07 07:02:39 51°16.842 2°52.875 17.78 4.446723 33.77843 8.320289
2005-07-07 07:02:44 51°16.855 2°52.863 17.7722 4.446407 33.778141 8.522546
2005-07-07 07:02:49 51°16.87 2°52.85 17.7622 4.446934 33.786827 8.084324
2005-07-07 07:02:54 51°16.887 2°52.835 17.7586 4.448305 33.803292 8.185452
2005-07-07 07:02:59 51°16.902 2°52.822 17.7527 4.449993 33.822454 7.983195
2005-07-07 07:03:04 51°16.916 2°52.81 17.7457 4.449993 33.822454 7.983195
2005-07-07 07:03:09 51°16.931 2°52.795 17.7447 4.451153 33.834729 7.915777
2005-07-07 07:03:14 51°16.947 2°52.781 17.7415 4.449782 33.830886 8.387708
2005-07-07 07:03:19 51°16.962 2°52.767 17.7353 4.449782 33.838711 7.949486
2005-07-07 07:03:24 51°16.975 2°52.755 17.729 4.449888 33.848643 7.814648
2005-07-07 07:03:29 51°16.993 2°52.74 17.7201 4.449993 33.856772 7.848358
2005-07-07 07:03:33 51°17.005 2°52.729 17.7002 4.449993 33.856772 7.848358
2005-07-07 07:03:39 51°17.023 2°52.713 17.6859 4.450943 33.869075 7.612392
2005-07-07 07:03:44 51°17.037 2°52.7 17.6738 4.451259 33.879009 7.71352
2005-07-07 07:03:49 51°17.054 2°52.685 17.6577 4.450626 33.879653 7.74723
2005-07-07 07:03:54 51°17.069 2°52.671 17.6398 4.45147 33.891067 7.679811
2005-07-07 07:03:59 51°17.085 2°52.657 17.6212 4.45147 33.895295 7.511264
2005-07-07 07:04:04 51°17.098 2°52.644 17.6056 4.45147 33.895295 7.511264
2005-07-07 07:04:09 51°17.115 2°52.631 17.5893 4.451576 33.902235 7.309007
2005-07-07 07:04:13 51°17.127 2°52.62 17.582 4.451365 33.909503 7.612392
2005-07-07 07:04:19 51°17.145 2°52.604 17.576 4.451576 33.923398 7.983195
2005-07-07 07:04:24 51°17.158 2°52.593 17.5734 4.451893 33.938809 8.28658
2005-07-07 07:04:29 51°17.175 2°52.58 17.5747 4.451471 33.947326 7.71352
2005-07-07 07:04:34 51°17.189 2°52.568 17.5791 4.451471 33.947326 7.71352
2005-07-07 07:04:40 51°17.207 2°52.554 17.5857 4.450628 33.961345 7.679811
2005-07-07 07:04:45 51°17.22 2°52.543 17.5883 4.450523 33.976227 7.443845
2005-07-07 07:04:49 51°17.233 2°52.532 17.5957 4.447781 33.967371 7.814648
2005-07-07 07:04:53 51°17.245 2°52.522 17.602 4.446304 33.964469 7.915777
2005-07-07 07:04:59 51°17.261 2°52.507 17.6098 4.444828 33.963999 7.983195
2005-07-07 07:05:04 51°17.276 2°52.494 17.6165 4.444828 33.963999 7.983195
2005-07-07 07:05:09 51°17.292 2°52.479 17.6225 4.444406 33.961607 7.443845
2005-07-07 07:05:14 51°17.305 2°52.466 17.6309 4.444195 33.965882 7.275298
2005-07-07 07:05:19 51°17.322 2°52.451 17.6377 4.445039 33.968843 7.679811
2005-07-07 07:05:24 51°17.335 2°52.44 17.6474 4.445883 33.973627 7.511264
2005-07-07 07:05:29 51°17.352 2°52.424 17.6548 4.44641 33.976313 7.679811
2005-07-07 07:05:33 51°17.364 2°52.415 17.6615 4.44641 33.976313 7.679811
2005-07-07 07:05:39 51°17.382 2°52.399 17.6723 4.447148 33.974722 7.410136
2005-07-07 07:05:44 51°17.396 2°52.387 17.6783 4.447886 33.975564 7.74723
2005-07-07 07:05:49 51°17.413 2°52.372 17.6845 4.448308 33.971878 7.443845
2005-07-07 07:05:54 51°17.426 2°52.359 17.6891 4.447992 33.9631 7.309007
2005-07-07 07:05:59 51°17.443 2°52.343 17.694 4.448519 33.959106 7.74723
2005-07-07 07:06:04 51°17.457 2°52.331 17.6992 4.448519 33.959106 7.74723
2005-07-07 07:06:09 51°17.473 2°52.316 17.7036 4.448835 33.956346 7.342717
2005-07-07 07:06:14 51°17.487 2°52.302 17.7066 4.44873 33.948165 7.511264
2005-07-07 07:06:19 51°17.503 2°52.287 17.7085 4.448729 33.939069 7.342717
2005-07-07 07:06:24 51°17.517 2°52.274 17.7106 4.449784 33.942618 7.073042
2005-07-07 07:06:29 51°17.532 2°52.26 17.7119 4.448729 33.928767 7.309007
2005-07-07 07:06:34 51°17.547 2°52.246 17.7128 4.448729 33.928767 7.309007
2005-07-07 07:06:39 51°17.564 2°52.231 17.7131 4.449995 33.9323 7.275298
2005-07-07 07:06:44 51°17.578 2°52.219 17.7149 4.4501 33.928355 7.005623
2005-07-07 07:06:49 51°17.595 2°52.204 17.7158 4.4501 33.923512 7.410136
2005-07-07 07:06:53 51°17.608 2°52.195 17.7163 4.449678 33.916281 7.309007
2005-07-07 07:06:59 51°17.627 2°52.183 17.7193 4.449994 33.913535 7.679811
2005-07-07 07:07:04 51°17.643 2°52.175 17.7165 4.449994 33.913535 7.679811
2005-07-07 07:07:09 51°17.66 2°52.167 17.7183 4.449678 33.910231 7.679811
2005-07-07 07:07:13 51°17.673 2°52.162 17.7151 4.449889 33.909006 7.612392
2005-07-07 07:07:19 51°17.693 2°52.152 17.7127 4.446303 33.88326 7.275298
2005-07-07 07:07:24 51°17.707 2°52.147 17.7128 4.447568 33.886196 8.050614
2005-07-07 07:07:29 51°17.726 2°52.138 17.7111 4.448412 33.893995 7.376426
2005-07-07 07:07:34 51°17.742 2°52.135 17.707 4.448412 33.893995 7.376426
2005-07-07 07:07:39 51°17.759 2°52.129 17.7072 4.447779 33.889203 7.477554
2005-07-07 07:07:44 51°17.774 2°52.128 17.7018 4.44683 33.878088 7.612392
2005-07-07 07:07:49 51°17.792 2°52.123 17.7034 4.442928 33.843612 7.578683
2005-07-07 07:07:53 51°17.805 2°52.121 17.7038 4.441135 33.827121 8.252871
2005-07-07 07:07:59 51°17.825 2°52.118 17.7009 4.437971 33.804976 7.511264
2005-07-07 07:08:04 51°17.842 2°52.116 17.7 4.437971 33.804976 7.511264
2005-07-07 07:08:09 51°17.859 2°52.117 17.6981 4.43776 33.803178 8.185452
2005-07-07 07:08:13 51°17.872 2°52.116 17.6985 4.438498 33.810074 7.74723
2005-07-07 07:08:19 51°17.892 2°52.119 17.6969 4.43892 33.816082 7.612392
2005-07-07 07:08:24 51°17.909 2°52.116 17.6941 4.439342 33.821489 7.74723
2005-07-07 07:08:29 51°17.925 2°52.12 17.691 4.43987 33.827795 7.71352
2005-07-07 07:08:34 51°17.94 2°52.119 17.6923 4.43987 33.827795 7.71352
2005-07-07 07:08:39 51°17.96 2°52.123 17.6884 4.44008 33.830197 8.623674
2005-07-07 07:08:44 51°17.975 2°52.123 17.69 4.440713 33.837403 7.511264
2005-07-07 07:08:49 51°17.993 2°52.13 17.6853 4.439659 33.82841 7.814648
2005-07-07 07:08:54 51°18.011 2°52.125 17.6882 4.439237 33.827227 8.623674
2005-07-07 07:08:59 51°18.026 2°52.13 17.6861 4.440186 33.835925 9.129315
2005-07-07 07:09:04 51°18.041 2°52.129 17.6857 4.440186 33.835925 9.129315
2005-07-07 07:09:09 51°18.06 2°52.133 17.6862 4.440186 33.837736 9.264153
2005-07-07 07:09:14 51°18.075 2°52.132 17.6874 4.439342 33.831144 9.500118
2005-07-07 07:09:20 51°18.096 2°52.135 17.6934 4.439342 33.824505 10.073178
2005-07-07 07:09:24 51°18.109 2°52.136 17.692 4.439342 33.834162 10.208016
2005-07-07 07:09:30 51°18.129 2°52.135 17.6882 4.44451 33.87643 9.028187
2005-07-07 07:09:34 51°18.143 2°52.138 17.6911 4.44451 33.87643 9.028187
2005-07-07 07:09:39 51°18.159 2°52.136 17.6903 4.436389 33.805358 9.095606
2005-07-07 07:09:44 51°18.176 2°52.137 17.6901 4.43871 33.83118 10.679947
2005-07-07 07:09:49 51°18.193 2°52.139 17.689 4.439553 33.837773 9.837212
2005-07-07 07:09:53 51°18.207 2°52.139 17.6901 4.435335 33.806016 8.960768
2005-07-07 07:09:59 51°18.227 2°52.142 17.6909 4.43312 33.782303 9.163024
2005-07-07 07:10:04 51°18.242 2°52.141 17.6922 4.43312 33.782303 9.163024
2005-07-07 07:10:09 51°18.261 2°52.143 17.6928 4.43544 33.802692 10.140597
2005-07-07 07:10:13 51°18.275 2°52.143 17.6917 4.436706 33.809262 9.196734
2005-07-07 07:10:19 51°18.295 2°52.144 17.694 4.435229 33.799687 9.702375
2005-07-07 07:10:24 51°18.311 2°52.144 17.6884 4.435124 33.798788 10.073178
2005-07-07 07:10:29 51°18.329 2°52.145 17.6896 4.431538 33.769416 9.095606
2005-07-07 07:10:34 51°18.345 2°52.146 17.6907 4.431538 33.769416 9.095606
2005-07-07 07:10:39 51°18.363 2°52.148 17.6868 4.436811 33.813178 9.365281
2005-07-07 07:10:44 51°18.379 2°52.147 17.6923 4.437233 33.815569 10.342853
2005-07-07 07:10:49 51°18.397 2°52.152 17.693 4.436284 33.807475 8.994477
2005-07-07 07:10:53 51°18.411 2°52.149 17.6936 4.436706 33.810469 9.769794
2005-07-07 07:10:59 51°18.432 2°52.153 17.691 4.436917 33.813474 10.578819
2005-07-07 07:11:04 51°18.448 2°52.153 17.6898 4.436917 33.813474 10.578819
2005-07-07 07:11:09 51°18.466 2°52.154 17.6896 4.437971 33.819451 9.837212
2005-07-07 07:11:14 51°18.481 2°52.154 17.6884 4.438288 33.826375 9.837212
2005-07-07 07:11:19 51°18.5 2°52.155 17.6901 4.438815 33.830269 10.713657
2005-07-07 07:11:24 51°18.515 2°52.155 17.6891 4.438182 33.826079 10.713657
2005-07-07 07:11:29 51°18.534 2°52.158 17.6865 4.437339 33.816469 10.140597
2005-07-07 07:11:34 51°18.551 2°52.157 17.6866 4.437339 33.816469 10.140597
2005-07-07 07:11:39 51°18.568 2°52.159 17.6878 4.436495 33.81048 10.005759
2005-07-07 07:11:44 51°18.583 2°52.159 17.6883 4.436284 33.807475 8.960768
2005-07-07 07:11:49 51°18.6 2°52.16 17.6906 4.437549 33.817664 8.387708
2005-07-07 07:11:53 51°18.616 2°52.16 17.6933 4.43428 33.792799 10.882204
2005-07-07 07:11:59 51°18.636 2°52.161 17.6939 4.437655 33.819771 10.781076
2005-07-07 07:12:04 51°18.651 2°52.162 17.6956 4.437655 33.819771 10.781076
2005-07-07 07:12:08 51°18.665 2°52.164 17.6939 4.437233 33.818587 8.85964
2005-07-07 07:12:14 51°18.686 2°52.162 17.6959 4.435546 33.802385 10.814785
2005-07-07 07:12:19 51°18.704 2°52.164 17.695 4.432171 33.77662 10.646238
2005-07-07 07:12:24 51°18.72 2°52.162 17.6945 4.430694 33.761017 10.983332
2005-07-07 07:12:29 51°18.739 2°52.164 17.696 4.437233 33.816776 9.634956
2005-07-07 07:12:34 51°18.756 2°52.164 17.696 4.437233 33.816776 9.634956
2005-07-07 07:12:39 51°18.774 2°52.166 17.6941 4.436811 33.812575 9.163024
2005-07-07 07:12:44 51°18.789 2°52.165 17.6924 4.436284 33.808681 8.691093
2005-07-07 07:12:49 51°18.808 2°52.167 17.6917 4.436706 33.810469 8.623674
2005-07-07 07:12:54 51°18.825 2°52.166 17.6926 4.437022 33.812564 9.533828
2005-07-07 07:12:59 51°18.842 2°52.168 17.6908 4.437339 33.816469 8.994477
2005-07-07 07:13:04 51°18.858 2°52.167 17.6923 4.437339 33.816469 8.994477
2005-07-07 07:13:09 51°18.877 2°52.168 17.6906 4.438182 33.82125 10.848494
2005-07-07 07:13:14 51°18.894 2°52.169 17.6916 4.437971 33.819451 10.983332
2005-07-07 07:13:20 51°18.913 2°52.17 17.6907 4.436495 33.80867 10.241725
2005-07-07 07:13:24 51°18.927 2°52.169 17.6941 4.43776 33.820067 9.938341
2005-07-07 07:13:28 51°18.941 2°52.169 17.6929 4.434913 33.796989 8.960768
2005-07-07 07:13:33 51°18.959 2°52.169 17.6938 4.434913 33.796989 8.960768
2005-07-07 07:13:39 51°18.98 2°52.17 17.6912 4.436706 33.814089 11.185589
2005-07-07 07:13:44 51°18.996 2°52.17 17.69 4.437866 33.820966 10.275435
2005-07-07 07:13:49 51°19.015 2°52.17 17.6886 4.438182 33.824872 10.410272
2005-07-07 07:13:53 51°19.027 2°52.169 17.6898 4.437655 33.820374 10.342853
2005-07-07 07:13:59 51°19.049 2°52.171 17.6898 4.437339 33.817072 10.848494
2005-07-07 07:14:04 51°19.064 2°52.17 17.6909 4.437339 33.817072 10.848494
2005-07-07 07:14:09 51°19.083 2°52.173 17.6915 4.436811 33.811972 9.567537
2005-07-07 07:14:14 51°19.099 2°52.172 17.6893 4.437971 33.819451 10.005759
2005-07-07 07:14:19 51°19.115 2°52.172 17.69 4.436917 33.814078 11.724939
2005-07-07 07:14:24 51°19.134 2°52.172 17.6942 4.437655 33.81796 11.219298
2005-07-07 07:14:29 51°19.149 2°52.171 17.701 4.43776 33.823084 11.590101
2005-07-07 07:14:33 51°19.165 2°52.172 17.7042 4.43776 33.823084 11.590101
2005-07-07 07:14:39 51°19.185 2°52.171 17.7099 4.436284 33.810491 10.54511
2005-07-07 07:14:43 51°19.199 2°52.171 17.7155 4.437022 33.815581 10.781076
2005-07-07 07:14:49 51°19.219 2°52.17 17.7213 4.436917 33.813474 10.443982
2005-07-07 07:14:53 51°19.232 2°52.17 17.7254 4.437022 33.814374 10.646238
2005-07-07 07:14:59 51°19.253 2°52.17 17.7307 4.436284 33.808681 9.365281
2005-07-07 07:15:04 51°19.268 2°52.171 17.7361 4.436284 33.808681 9.365281
2005-07-07 07:15:09 51°19.286 2°52.17 17.7397 4.433858 33.784981 10.612529
2005-07-07 07:15:13 51°19.3 2°52.17 17.744 4.430694 33.754993 11.623811
2005-07-07 07:15:19 51°19.318 2°52.171 17.7481 4.426159 33.711526 10.410272
2005-07-07 07:15:24 51°19.336 2°52.172 17.7504 4.422995 33.679157 10.814785
2005-07-07 07:15:29 51°19.354 2°52.173 17.754 4.41962 33.648007 11.354136
2005-07-07 07:15:33 51°19.367 2°52.172 17.7574 4.41962 33.648007 11.354136
2005-07-07 07:15:39 51°19.387 2°52.173 17.7593 4.41614 33.61237 11.724939
2005-07-07 07:15:44 51°19.402 2°52.173 17.7619 4.413503 33.584532 10.882204
2005-07-07 07:15:49 51°19.421 2°52.172 17.7634 4.410655 33.556704 10.241725
2005-07-07 07:15:54 51°19.436 2°52.171 17.7655 4.408546 33.534569 10.5114
2005-07-07 07:15:59 51°19.452 2°52.172 17.7684 4.406015 33.508853 10.747366
2005-07-07 07:16:04 51°19.469 2°52.171 17.7701 4.406015 33.508853 10.747366
2005-07-07 07:16:09 51°19.488 2°52.171 17.7729 4.403906 33.489716 9.938341
2005-07-07 07:16:13 51°19.502 2°52.172 17.7739 4.402324 33.472086 13.241862
2005-07-07 07:16:19 51°19.522 2°52.172 17.7758 4.399687 33.445494 11.354136
2005-07-07 07:16:24 51°19.537 2°52.171 17.777 4.398843 33.43713 11.927195
2005-07-07 07:16:29 51°19.556 2°52.17 17.7778 4.398421 33.429971 11.185589
2005-07-07 07:16:34 51°19.573 2°52.17 17.7792 4.398421 33.429971 11.185589
2005-07-07 07:16:39 51°19.588 2°52.17 17.7808 4.397367 33.419221 11.387845
2005-07-07 07:16:44 51°19.607 2°52.171 17.7815 4.397261 33.41535 10.949623
2005-07-07 07:16:48 51°19.619 2°52.17 17.7814 4.396734 33.409083 12.702512
2005-07-07 07:16:53 51°19.636 2°52.17 17.7831 4.395363 33.396243 11.590101
2005-07-07 07:16:59 51°19.658 2°52.169 17.7838 4.39705 33.409394 10.342853
2005-07-07 07:17:04 51°19.676 2°52.169 17.7848 4.39705 33.409394 10.342853
2005-07-07 07:17:09 51°19.691 2°52.17 17.7867 4.395046 33.3888 11.253007
2005-07-07 07:17:14 51°19.71 2°52.169 17.7874 4.396734 33.402543 12.196871
2005-07-07 07:17:19 51°19.727 2°52.17 17.788 4.394414 33.382829 10.747366
2005-07-07 07:17:24 51°19.743 2°52.168 17.7886 4.393043 33.369399 11.050751
2005-07-07 07:17:29 51°19.761 2°52.167 17.7893 4.392094 33.361929 11.253007
2005-07-07 07:17:34 51°19.776 2°52.166 17.7905 4.392094 33.361929 11.253007
2005-07-07 07:17:40 51°19.797 2°52.167 17.791 4.395257 33.387027 12.601383
2005-07-07 07:17:44 51°19.812 2°52.166 17.7914 4.393992 33.375087 11.859777
2005-07-07 07:17:49 51°19.829 2°52.166 17.7929 4.393148 33.366732 12.028324
2005-07-07 07:17:54 51°19.844 2°52.167 17.7935 4.39357 33.368535 12.163161
2005-07-07 07:17:59 51°19.863 2°52.168 17.792 4.393992 33.370337 11.590101
2005-07-07 07:18:04 51°19.878 2°52.169 17.7923 4.393992 33.370337 11.590101
2005-07-07 07:18:08 51°19.892 2°52.171 17.7937 4.391988 33.353911 10.949623
2005-07-07 07:18:14 51°19.914 2°52.172 17.7949 4.39241 33.3569 10.882204
2005-07-07 07:18:19 51°19.929 2°52.174 17.7939 4.39357 33.366754 12.163161
2005-07-07 07:18:24 51°19.945 2°52.175 17.794 4.394097 33.370045 13.983469
2005-07-07 07:18:29 51°19.964 2°52.175 17.794 4.393464 33.364077 12.062033
2005-07-07 07:18:33 51°19.978 2°52.175 17.7962 4.393464 33.364077 12.062033
2005-07-07 07:18:40 51°20 2°52.176 17.7969 4.392937 33.357818 11.488973
2005-07-07 07:18:44 51°20.014 2°52.177 17.7977 4.393359 33.361401 12.196871
2005-07-07 07:18:49 51°20.033 2°52.178 17.7989 4.392937 33.358412 10.679947
2005-07-07 07:18:54 51°20.048 2°52.178 17.7996 4.391777 33.34678 10.5114
2005-07-07 07:18:59 51°20.066 2°52.179 17.8002 4.390195 33.333347 10.646238
2005-07-07 07:19:04 51°20.085 2°52.181 17.7998 4.390195 33.333347 10.646238
2005-07-07 07:19:09 51°20.101 2°52.182 17.7996 4.381969 33.265282 12.095742
2005-07-07 07:19:14 51°20.118 2°52.182 17.7982 4.384395 33.282322 12.76993
2005-07-07 07:19:19 51°20.135 2°52.184 17.7979 4.382391 33.265904 13.208153
2005-07-07 07:19:24 51°20.15 2°52.184 17.7972 4.381125 33.253979 11.826067
2005-07-07 07:19:29 51°20.169 2°52.187 17.7991 4.380176 33.24474 11.960905
2005-07-07 07:19:34 51°20.184 2°52.186 17.7991 4.380176 33.24474 11.960905
2005-07-07 07:19:40 51°20.205 2°52.188 17.7983 4.379227 33.236685 13.241862
2005-07-07 07:19:44 51°20.218 2°52.188 17.7996 4.378067 33.226839 13.107024
2005-07-07 07:19:49 51°20.238 2°52.187 17.7978 4.380282 33.243862 12.736221
2005-07-07 07:19:53 51°20.251 2°52.186 17.7976 4.376696 33.214023 14.48911
2005-07-07 07:19:59 51°20.272 2°52.182 17.7959 4.376274 33.212216 16.17458
2005-07-07 07:20:04 51°20.287 2°52.181 17.7952 4.376274 33.212216 16.17458
2005-07-07 07:20:09 51°20.306 2°52.178 17.796 4.37754 33.222364 15.871195
2005-07-07 07:20:14 51°20.323 2°52.175 17.7943 4.378067 33.228021 13.309281
2005-07-07 07:20:19 51°20.34 2°52.172 17.7945 4.378067 33.226839 13.747503
2005-07-07 07:20:24 51°20.355 2°52.17 17.7905 4.375641 33.207436 14.556529
2005-07-07 07:20:29 51°20.373 2°52.167 17.7867 4.377856 33.22564 13.814922
2005-07-07 07:20:33 51°20.388 2°52.164 17.7827 4.377856 33.22564 13.814922
2005-07-07 07:20:39 51°20.408 2°52.16 17.786 4.379227 33.238458 11.590101
2005-07-07 07:20:44 51°20.423 2°52.158 17.7843 4.38566 33.29425 13.814922
2005-07-07 07:20:49 51°20.442 2°52.157 17.7819 4.381969 33.262323 12.601383
2005-07-07 07:20:54 51°20.457 2°52.157 17.7787 4.381231 33.255466 14.859913
2005-07-07 07:20:59 51°20.475 2°52.158 17.776 4.379965 33.246498 14.017178
2005-07-07 07:21:04 51°20.49 2°52.159 17.7741 4.379965 33.246498 14.017178
2005-07-07 07:21:09 51°20.509 2°52.16 17.7712 4.383551 33.277528 13.073315
2005-07-07 07:21:14 51°20.526 2°52.162 17.7712 4.38566 33.296619 12.904768
2005-07-07 07:21:19 51°20.54 2°52.164 17.7705 4.386082 33.303163 13.848631
2005-07-07 07:21:24 51°20.558 2°52.167 17.7688 4.382075 33.269136 13.410409
2005-07-07 07:21:29 51°20.577 2°52.17 17.77 4.384184 33.288228 11.320426
2005-07-07 07:21:34 51°20.592 2°52.173 17.7686 4.384184 33.288228 11.320426
2005-07-07 07:21:39 51°20.61 2°52.178 17.7688 4.383446 33.285513 11.219298
2005-07-07 07:21:44 51°20.625 2°52.18 17.7705 4.386082 33.310867 11.893486
2005-07-07 07:21:49 51°20.644 2°52.183 17.7706 4.383129 33.286972 13.174443
2005-07-07 07:21:53 51°20.657 2°52.186 17.7707 4.384184 33.297707 11.994614
2005-07-07 07:21:59 51°20.678 2°52.19 17.7732 4.381126 33.273508 12.702512
2005-07-07 07:22:04 51°20.693 2°52.192 17.7749 4.381126 33.273508 12.702512
2005-07-07 07:22:09 51°20.711 2°52.197 17.7734 4.379227 33.257979 13.005896
2005-07-07 07:22:14 51°20.728 2°52.201 17.7734 4.378911 33.2547 12.500255
2005-07-07 07:22:19 51°20.745 2°52.205 17.7756 4.378806 33.254396 12.028324
2005-07-07 07:22:24 51°20.76 2°52.206 17.7744 4.378911 33.255884 14.118306
2005-07-07 07:22:29 51°20.778 2°52.207 17.7751 4.37986 33.263352 14.927332
2005-07-07 07:22:34 51°20.793 2°52.203 17.7749 4.37986 33.263352 14.927332
2005-07-07 07:22:40 51°20.812 2°52.197 17.7757 4.374693 33.218879 12.331708
2005-07-07 07:22:44 51°20.826 2°52.191 17.7753 4.37406 33.212324 16.444255
2005-07-07 07:22:49 51°20.844 2°52.184 17.7758 4.374798 33.218592 12.871059
2005-07-07 07:22:54 51°20.858 2°52.177 17.7769 4.373849 33.211124 11.623811
2005-07-07 07:22:59 51°20.876 2°52.165 17.7793 4.373322 33.203693 13.578956
2005-07-07 07:23:04 51°20.89 2°52.154 17.78 4.373322 33.203693 13.578956
2005-07-07 07:23:09 51°20.907 2°52.139 17.7803 4.371951 33.194417 14.118306
2005-07-07 07:23:14 51°20.92 2°52.125 17.7813 4.371634 33.191731 13.34299
2005-07-07 07:23:19 51°20.937 2°52.109 17.7817 4.373743 33.207865 13.309281
2005-07-07 07:23:24 51°20.95 2°52.093 17.782 4.369842 33.17533 12.837349
2005-07-07 07:23:29 51°20.966 2°52.075 17.7836 4.371529 33.188473 16.241999
2005-07-07 07:23:34 51°20.98 2°52.056 17.7842 4.371529 33.188473 16.241999
2005-07-07 07:23:39 51°20.992 2°52.04 17.7834 4.370474 33.179521 14.050888
2005-07-07 07:23:44 51°21.005 2°52.021 17.7853 4.377013 33.236214 12.533965
2005-07-07 07:23:49 51°21.02 2°52 17.7847 4.376802 33.232057 13.140734
2005-07-07 07:23:53 51°21.029 2°51.986 17.7845 4.376064 33.224607 15.129589
2005-07-07 07:23:59 51°21.046 2°51.96 17.7833 4.375325 33.217749 14.623947
2005-07-07 07:24:04 51°21.058 2°51.941 17.7809 4.375325 33.217749 14.623947
2005-07-07 07:24:09 51°21.072 2°51.918 17.7821 4.374482 33.209996 13.680084
2005-07-07 07:24:13 51°21.082 2°51.902 17.7781 4.373216 33.197481 14.961042
2005-07-07 07:24:19 51°21.097 2°51.878 17.7746 4.373322 33.197785 13.241862
2005-07-07 07:24:24 51°21.108 2°51.859 17.7739 4.371634 33.184644 17.388118
2005-07-07 07:24:29 51°21.122 2°51.839 17.7715 4.371107 33.180169 14.758785
2005-07-07 07:24:34 51°21.135 2°51.817 17.7679 4.371107 33.180169 14.758785
2005-07-07 07:24:39 51°21.148 2°51.797 17.7659 4.37058 33.176284 14.219435
2005-07-07 07:24:44 51°21.159 2°51.778 17.7599 4.369947 33.170913 13.91605
2005-07-07 07:24:49 51°21.174 2°51.758 17.7585 4.369736 33.170303 15.095879
2005-07-07 07:24:53 51°21.184 2°51.742 17.7544 4.368787 33.165198 14.826204
2005-07-07 07:24:59 51°21.201 2°51.719 17.7492 4.368787 33.162837 14.4554
2005-07-07 07:25:04 51°21.212 2°51.702 17.7474 4.368787 33.162837 14.4554
2005-07-07 07:25:09 51°21.228 2°51.681 17.7429 4.368998 33.166988 13.3767
2005-07-07 07:25:13 51°21.239 2°51.667 17.7383 4.367732 33.159787 13.713794
2005-07-07 07:25:19 51°21.256 2°51.646 17.7346 4.366783 33.15527 14.253144
2005-07-07 07:25:24 51°21.269 2°51.631 17.7303 4.366045 33.150184 13.612665
2005-07-07 07:25:29 51°21.285 2°51.612 17.7245 4.364463 33.139704 14.725076
2005-07-07 07:25:34 51°21.3 2°51.596 17.7221 4.364463 33.139704 14.725076
2005-07-07 07:25:39 51°21.315 2°51.58 17.7202 4.363514 33.136365 14.219435
2005-07-07 07:25:44 51°21.328 2°51.566 17.7166 4.362565 33.130076 14.152016
2005-07-07 07:25:49 51°21.344 2°51.549 17.7115 4.361194 33.120205 15.399264
2005-07-07 07:25:54 51°21.358 2°51.536 17.7099 4.361616 33.129686 14.050888
2005-07-07 07:26:00 51°21.377 2°51.52 17.7082 4.360983 33.127853 13.814922
2005-07-07 07:26:04 51°21.392 2°51.509 17.7032 4.360983 33.127853 13.814922
2005-07-07 07:26:09 51°21.408 2°51.498 17.7063 4.36014 33.125408 13.073315
2005-07-07 07:26:13 51°21.421 2°51.49 17.7019 4.359085 33.119991 15.230717
2005-07-07 07:26:20 51°21.443 2°51.475 17.7037 4.357925 33.115447 13.612665
2005-07-07 07:26:24 51°21.456 2°51.467 17.7033 4.357715 33.116016 16.781349
2005-07-07 07:26:29 51°21.474 2°51.455 17.7002 4.356449 33.108214 13.747503
2005-07-07 07:26:33 51°21.486 2°51.45 17.6949 4.356449 33.108214 13.747503
2005-07-07 07:26:40 51°21.508 2°51.436 17.6953 4.356449 33.112936 13.275571
2005-07-07 07:26:44 51°21.521 2°51.428 17.7001 4.357082 33.118903 13.275571
2005-07-07 07:26:49 51°21.54 2°51.42 17.6935 4.355816 33.108149 16.781349
2005-07-07 07:26:53 51°21.553 2°51.414 17.6916 4.354551 33.099756 15.163298
2005-07-07 07:27:00 51°21.575 2°51.407 17.6921 4.353391 33.092258 16.17458
2005-07-07 07:27:04 51°21.59 2°51.403 17.6937 4.353391 33.092258 16.17458
2005-07-07 07:27:09 51°21.607 2°51.398 17.6915 4.353075 33.08898 15.803777
2005-07-07 07:27:14 51°21.623 2°51.395 17.6912 4.353602 33.096411 14.48911
2005-07-07 07:27:19 51°21.642 2°51.391 17.6935 4.354657 33.107735 14.623947
2005-07-07 07:27:24 51°21.657 2°51.388 17.6943 4.35318 33.096367 13.91605
2005-07-07 07:27:29 51°21.674 2°51.387 17.6923 4.353813 33.100564 14.691366
2005-07-07 07:27:33 51°21.69 2°51.386 17.6896 4.353813 33.100564 14.691366
2005-07-07 07:27:40 51°21.712 2°51.385 17.6902 4.354657 33.109507 15.331845
2005-07-07 07:27:44 51°21.726 2°51.385 17.6952 4.355922 33.119673 13.208153
2005-07-07 07:27:49 51°21.745 2°51.388 17.6912 4.354762 33.112765 15.60152
2005-07-07 07:27:54 51°21.76 2°51.388 17.6903 4.353813 33.105878 15.399264
2005-07-07 07:27:59 51°21.779 2°51.392 17.6898 4.353497 33.101417 14.286853
2005-07-07 07:28:04 51°21.796 2°51.395 17.6938 4.353497 33.101417 14.286853
2005-07-07 07:28:09 51°21.813 2°51.398 17.6907 4.35318 33.099318 14.152016
2005-07-07 07:28:14 51°21.828 2°51.401 17.6897 4.354129 33.106796 14.253144
2005-07-07 07:28:19 51°21.847 2°51.404 17.6914 4.354551 33.110972 15.567811
2005-07-07 07:28:24 51°21.864 2°51.406 17.6932 4.353497 33.103779 14.725076
2005-07-07 07:28:29 51°21.88 2°51.411 17.695 4.354657 33.110688 14.927332
2005-07-07 07:28:34 51°21.897 2°51.417 17.6907 4.354657 33.110688 14.927332
2005-07-07 07:28:39 51°21.913 2°51.425 17.6902 4.354762 33.115128 14.725076
2005-07-07 07:28:44 51°21.927 2°51.435 17.6955 4.355184 33.118123 13.781212
2005-07-07 07:28:49 51°21.945 2°51.443 17.7031 4.355606 33.12171 13.713794
2005-07-07 07:28:53 51°21.956 2°51.454 17.6945 4.356555 33.129188 13.882341
2005-07-07 07:28:59 51°21.975 2°51.464 17.692 4.355922 33.12499 15.63523
2005-07-07 07:29:04 51°21.989 2°51.48 17.692 4.355922 33.12499 15.63523
2005-07-07 07:29:09 51°22.005 2°51.488 17.6936 4.35666 33.128312 14.691366
2005-07-07 07:29:14 51°22.018 2°51.5 17.69 4.357188 33.135159 14.859913
2005-07-07 07:29:19 51°22.036 2°51.511 17.6897 4.35782 33.139947 16.073452
2005-07-07 07:29:24 51°22.05 2°51.522 17.6877 4.35782 33.135219 15.534101
2005-07-07 07:29:29 51°22.065 2°51.531 17.6896 4.357082 33.132489 14.994751
2005-07-07 07:29:34 51°22.08 2°51.544 17.6882 4.357082 33.132489 14.994751
2005-07-07 07:29:39 51°22.099 2°51.551 17.6906 4.35782 33.136401 14.590238
2005-07-07 07:29:44 51°22.112 2°51.563 17.6899 4.358769 33.14447 15.668939
2005-07-07 07:29:49 51°22.129 2°51.571 17.6926 4.35877 33.146244 14.792494
2005-07-07 07:29:53 51°22.141 2°51.582 17.6914 4.360457 33.162956 14.219435
2005-07-07 07:29:59 51°22.161 2°51.588 17.693 4.360773 33.168013 14.556529
2005-07-07 07:30:04 51°22.174 2°51.601 17.6926 4.360773 33.168013 14.556529
2005-07-07 07:30:09 51°22.191 2°51.612 17.6912 4.362566 33.180892 13.646375
2005-07-07 07:30:14 51°22.205 2°51.619 17.6873 4.362882 33.184174 13.781212
2005-07-07 07:30:19 51°22.221 2°51.633 17.6869 4.362566 33.183259 13.747503
2005-07-07 07:30:24 51°22.236 2°51.638 17.6877 4.362777 33.18091 13.275571
2005-07-07 07:30:29 51°22.252 2°51.653 17.6843 4.358664 33.145938 14.253144
2005-07-07 07:30:34 51°22.267 2°51.659 17.6837 4.358664 33.145938 14.253144
2005-07-07 07:30:39 51°22.283 2°51.673 17.684 4.359086 33.149525 13.983469
2005-07-07 07:30:44 51°22.298 2°51.681 17.6846 4.359402 33.151623 14.253144
2005-07-07 07:30:49 51°22.315 2°51.694 17.684 4.359719 33.154313 16.241999
2005-07-07 07:30:54 51°22.331 2°51.702 17.6821 4.364253 33.195833 16.680221
2005-07-07 07:30:59 51°22.347 2°51.713 17.6824 4.364886 33.200622 14.152016
2005-07-07 07:31:04 51°22.36 2°51.723 17.6818 4.364886 33.200622 14.152016
2005-07-07 07:31:08 51°22.373 2°51.729 17.6825 4.365941 33.212554 13.747503
2005-07-07 07:31:14 51°22.391 2°51.744 17.6824 4.365835 33.215212 15.770067
2005-07-07 07:31:19 51°22.41 2°51.749 17.685 4.366468 33.217039 15.567811
2005-07-07 07:31:24 51°22.424 2°51.764 17.6822 4.367101 33.225385 14.725076
2005-07-07 07:31:29 51°22.441 2°51.771 17.6786 4.368577 33.237945 16.241999
2005-07-07 07:31:33 51°22.453 2°51.78 17.676 4.368577 33.237945 16.241999
2005-07-07 07:31:39 51°22.472 2°51.792 17.6739 4.368788 33.23974 16.275708
2005-07-07 07:31:44 51°22.488 2°51.802 17.6731 4.368894 33.240637 14.556529
2005-07-07 07:31:48 51°22.498 2°51.81 17.672 4.369105 33.243025 15.803777
2005-07-07 07:31:54 51°22.517 2°51.821 17.666 4.369105 33.241245 14.118306
2005-07-07 07:32:00 51°22.536 2°51.832 17.6603 4.368894 33.238858 14.623947
2005-07-07 07:32:04 51°22.548 2°51.843 17.6567 4.368894 33.238858 14.623947
2005-07-07 07:32:09 51°22.565 2°51.848 17.6581 4.370054 33.24932 13.983469
2005-07-07 07:32:13 51°22.578 2°51.859 17.662 4.368577 33.238539 14.219435
2005-07-07 07:32:20 51°22.598 2°51.873 17.6533 4.37153 33.267223 13.174443
2005-07-07 07:32:24 51°22.613 2°51.88 17.65 4.369421 33.252243 14.050888
2005-07-07 07:32:29 51°22.628 2°51.89 17.6553 4.369948 33.257917 13.646375
2005-07-07 07:32:33 51°22.64 2°51.899 17.6524 4.369948 33.257917 13.646375
2005-07-07 07:32:39 51°22.659 2°51.911 17.645 4.371741 33.276738 14.253144
2005-07-07 07:32:44 51°22.675 2°51.918 17.6414 4.372269 33.284197 13.174443
2005-07-07 07:32:49 51°22.69 2°51.932 17.6476 4.373323 33.294958 13.612665
2005-07-07 07:32:54 51°22.705 2°51.938 17.6451 4.372691 33.293137 14.758785
2005-07-07 07:32:59 51°22.721 2°51.951 17.6425 4.373851 33.301825 13.882341
2005-07-07 07:33:04 51°22.736 2°51.957 17.6449 4.373851 33.301825 13.882341
2005-07-07 07:33:09 51°22.753 2°51.969 17.6386 4.377225 33.332941 15.264426
2005-07-07 07:33:13 51°22.766 2°51.974 17.6428 4.375854 33.321861 14.421691
2005-07-07 07:33:19 51°22.784 2°51.988 17.6383 4.376382 33.329327 14.725076
2005-07-07 07:33:24 51°22.8 2°51.996 17.6424 4.377647 33.343083 15.567811
2005-07-07 07:33:29 51°22.815 2°52.008 17.6367 4.377647 33.342487 14.623947
2005-07-07 07:33:33 51°22.828 2°52.013 17.6364 4.377647 33.342487 14.623947
2005-07-07 07:33:39 51°22.847 2°52.028 17.6354 4.376593 33.335886 14.48911
2005-07-07 07:33:44 51°22.863 2°52.034 17.6363 4.378807 33.352964 12.837349
2005-07-07 07:33:48 51°22.873 2°52.043 17.6335 4.375854 33.330789 15.668939
2005-07-07 07:33:54 51°22.894 2°52.052 17.6341 4.376698 33.341549 15.331845
2005-07-07 07:34:00 51°22.911 2°52.066 17.6335 4.376276 33.336764 13.646375
2005-07-07 07:34:04 51°22.924 2°52.07 17.6366 4.376276 33.336764 13.646375
2005-07-07 07:34:09 51°22.94 2°52.084 17.6299 4.377542 33.346949 12.297999
2005-07-07 07:34:14 51°22.955 2°52.089 17.6368 4.376487 33.340348 12.163161
2005-07-07 07:34:19 51°22.972 2°52.103 17.6278 4.377964 33.354118 13.781212
2005-07-07 07:34:24 51°22.986 2°52.111 17.6263 4.377015 33.347819 12.668802
2005-07-07 07:34:29 51°23.003 2°52.123 17.6222 4.377964 33.353522 13.039606
2005-07-07 07:34:34 51°23.017 2°52.129 17.6246 4.377964 33.353522 13.039606
2005-07-07 07:34:39 51°23.034 2°52.142 17.6219 4.379862 33.370888 13.646375
2005-07-07 07:34:44 51°23.047 2°52.15 17.6228 4.377331 33.350515 12.028324
2005-07-07 07:34:48 51°23.06 2°52.159 17.6206 4.37828 33.359198 13.275571
2005-07-07 07:34:53 51°23.076 2°52.167 17.6234 4.378069 33.357401 13.275571
2005-07-07 07:34:59 51°23.096 2°52.18 17.6197 4.378069 33.360381 13.208153
2005-07-07 07:35:04 51°23.11 2°52.188 17.6188 4.378069 33.360381 13.208153
2005-07-07 07:35:09 51°23.127 2°52.199 17.6154 4.380179 33.381338 15.466683
2005-07-07 07:35:13 51°23.138 2°52.205 17.6165 4.379229 33.374442 14.253144
2005-07-07 07:35:19 51°23.157 2°52.217 17.6147 4.378386 33.367251 14.826204
2005-07-07 07:35:24 51°23.173 2°52.227 17.6109 4.379124 33.374736 13.3767
2005-07-07 07:35:29 51°23.191 2°52.235 17.6111 4.378808 33.373829 13.781212
2005-07-07 07:35:34 51°23.204 2°52.245 17.6088 4.378808 33.373829 13.781212
2005-07-07 07:35:39 51°23.221 2°52.254 17.6077 4.378702 33.371737 14.4554
2005-07-07 07:35:44 51°23.236 2°52.261 17.6059 4.379335 33.379517 13.814922
2005-07-07 07:35:48 51°23.25 2°52.27 17.6121 4.379651 33.38281 13.713794
2005-07-07 07:35:54 51°23.267 2°52.28 17.6096 4.378175 33.376788 14.118306
2005-07-07 07:35:59 51°23.283 2°52.29 17.6094 4.378702 33.379493 12.972187
2005-07-07 07:36:04 51°23.298 2°52.298 17.614 4.378702 33.379493 12.972187
2005-07-07 07:36:08 51°23.31 2°52.306 17.614 4.38039 33.394476 14.219435
2005-07-07 07:36:13 51°23.327 2°52.316 17.6144 4.380073 33.394167 13.309281
2005-07-07 07:36:20 51°23.347 2°52.327 17.612 4.380179 33.395066 13.174443
2005-07-07 07:36:24 51°23.359 2°52.336 17.6133 4.381233 33.404058 13.410409
2005-07-07 07:36:29 51°23.376 2°52.346 17.6169 4.382604 33.414554 12.871059
2005-07-07 07:36:33 51°23.389 2°52.355 17.6168 4.382604 33.414554 12.871059
2005-07-07 07:36:39 51°23.407 2°52.362 17.6193 4.379335 33.387275 13.781212
2005-07-07 07:36:44 51°23.42 2°52.373 17.6189 4.377648 33.372889 13.275571
2005-07-07 07:36:49 51°23.439 2°52.38 17.6183 4.377015 33.366898 14.017178
2005-07-07 07:36:53 51°23.45 2°52.39 17.6167 4.376277 33.359412 13.747503
2005-07-07 07:36:59 51°23.469 2°52.401 17.6125 4.376171 33.359109 11.08446
2005-07-07 07:37:04 51°23.483 2°52.408 17.6123 4.376171 33.359109 11.08446
2005-07-07 07:37:09 51°23.499 2°52.417 17.6143 4.374695 33.344735 11.623811
2005-07-07 07:37:13 51°23.512 2°52.425 17.6118 4.37364 33.336938 13.3767
2005-07-07 07:37:19 51°23.531 2°52.436 17.6117 4.372902 33.328858 14.354272
2005-07-07 07:37:24 51°23.544 2°52.444 17.6111 4.372797 33.326171 14.118306
2005-07-07 07:37:29 51°23.561 2°52.455 17.6098 4.372375 33.320789 13.882341
2005-07-07 07:37:33 51°23.574 2°52.461 17.6103 4.372375 33.320789 13.882341
2005-07-07 07:37:39 51°23.592 2°52.473 17.6099 4.372691 33.326464 13.34299
2005-07-07 07:37:44 51°23.606 2°52.481 17.6062 4.371742 33.319566 13.208153
2005-07-07 07:37:49 51°23.622 2°52.493 17.6046 4.369844 33.303984 12.938477
2005-07-07 07:37:53 51°23.634 2°52.499 17.6053 4.370582 33.311466 13.275571
2005-07-07 07:37:59 51°23.653 2°52.514 17.6093 4.370687 33.312365 13.477828
2005-07-07 07:38:04 51°23.667 2°52.519 17.6052 4.370687 33.312365 13.477828
2005-07-07 07:38:09 51°23.684 2°52.533 17.6011 4.370266 33.309365 13.309281
2005-07-07 07:38:14 51°23.699 2°52.542 17.6014 4.370793 33.315051 14.050888
2005-07-07 07:38:20 51°23.716 2°52.554 17.5972 4.372269 33.32704 14.017178
2005-07-07 07:38:24 51°23.728 2°52.562 17.6001 4.37132 33.321928 14.48911
2005-07-07 07:38:29 51°23.743 2°52.576 17.5953 4.372797 33.334514 13.814922
2005-07-07 07:38:34 51°23.759 2°52.585 17.5985 4.372797 33.334514 13.814922
2005-07-07 07:38:39 51°23.774 2°52.596 17.6038 4.372691 33.333019 13.680084
2005-07-07 07:38:44 51°23.787 2°52.606 17.5987 4.372586 33.331524 12.264289
2005-07-07 07:38:49 51°23.804 2°52.618 17.5977 4.373324 33.339009 13.511537
2005-07-07 07:38:53 51°23.816 2°52.626 17.598 4.373851 33.345293 13.107024
2005-07-07 07:39:00 51°23.836 2°52.64 17.5986 4.373113 33.341385 12.163161
2005-07-07 07:39:04 51°23.848 2°52.647 17.5997 4.373113 33.341385 12.163161
2005-07-07 07:39:09 51°23.864 2°52.66 17.5984 4.37343 33.347661 15.02846
2005-07-07 07:39:14 51°23.88 2°52.669 17.6019 4.374168 33.350973 14.185725
2005-07-07 07:39:19 51°23.895 2°52.681 17.6037 4.372797 33.343458 12.837349
2005-07-07 07:39:24 51°23.909 2°52.689 17.6086 4.37343 33.347064 13.511537
2005-07-07 07:39:29 51°23.924 2°52.703 17.6086 4.37343 33.347661 13.34299
2005-07-07 07:39:34 51°23.938 2°52.712 17.6092 4.37343 33.347661 13.34299
2005-07-07 07:39:40 51°23.955 2°52.727 17.6137 4.372902 33.343164 12.938477
2005-07-07 07:39:44 51°23.969 2°52.735 17.6125 4.373535 33.347367 12.533965
2005-07-07 07:39:49 51°23.983 2°52.747 17.6138 4.372797 33.340476 11.623811
2005-07-07 07:39:53 51°23.994 2°52.756 17.6125 4.372797 33.340476 11.960905
2005-07-07 07:39:59 51°24.013 2°52.769 17.611 4.371531 33.327898 11.387845
2005-07-07 07:40:04 51°24.026 2°52.779 17.6116 4.371531 33.327898 11.387845
2005-07-07 07:40:10 51°24.042 2°52.795 17.6128 4.372375 33.331514 12.129452
2005-07-07 07:40:14 51°24.055 2°52.8 17.6128 4.371742 33.324332 11.320426
2005-07-07 07:40:20 51°24.073 2°52.817 17.6143 4.373008 33.33512 12.365418
2005-07-07 07:40:25 51°24.088 2°52.825 17.6162 4.37132 33.320141 12.062033
2005-07-07 07:40:29 51°24.1 2°52.837 17.6172 4.37132 33.317758 12.432836
2005-07-07 07:40:33 51°24.113 2°52.845 17.6213 4.37132 33.317758 12.432836
2005-07-07 07:40:39 51°24.131 2°52.858 17.6188 4.371531 33.319556 13.680084
2005-07-07 07:40:44 51°24.144 2°52.868 17.6164 4.371215 33.316264 16.039742
2005-07-07 07:40:49 51°24.161 2°52.879 17.6151 4.370371 33.309073 15.129589
2005-07-07 07:40:54 51°24.174 2°52.889 17.6165 4.370477 33.309376 12.365418
2005-07-07 07:41:00 51°24.193 2°52.901 17.6172 4.370582 33.310275 12.972187
2005-07-07 07:41:05 51°24.208 2°52.912 17.6165 4.370582 33.310275 12.972187
2005-07-07 07:41:09 51°24.221 2°52.922 17.6165 4.370266 33.305197 13.174443
2005-07-07 07:41:14 51°24.236 2°52.93 17.6177 4.369211 33.299186 11.994614
2005-07-07 07:41:19 51°24.253 2°52.94 17.6191 4.369844 33.300412 10.612529
2005-07-07 07:41:24 51°24.267 2°52.949 17.6187 4.369527 33.298311 12.028324
2005-07-07 07:41:29 51°24.284 2°52.959 17.6192 4.368895 33.294109 11.387845
2005-07-07 07:41:33 51°24.295 2°52.964 17.6217 4.368895 33.294109 11.387845
2005-07-07 07:41:39 51°24.314 2°52.975 17.6232 4.368051 33.286325 11.826067
2005-07-07 07:41:44 51°24.329 2°52.984 17.6226 4.368895 33.293514 11.65752
2005-07-07 07:41:49 51°24.346 2°52.992 17.6244 4.368684 33.292312 13.039606
2005-07-07 07:41:54 51°24.361 2°53.002 17.6251 4.368367 33.289021 11.893486
2005-07-07 07:41:59 51°24.379 2°53.008 17.6263 4.367418 33.280933 11.623811
2005-07-07 07:42:04 51°24.393 2°53.018 17.625 4.367418 33.280933 11.623811
2005-07-07 07:42:09 51°24.409 2°53.024 17.6254 4.367735 33.283034 12.129452
2005-07-07 07:42:13 51°24.422 2°53.034 17.6239 4.366996 33.275554 12.80364
2005-07-07 07:42:19 51°24.441 2°53.043 17.6273 4.366891 33.274061 14.623947
2005-07-07 07:42:24 51°24.455 2°53.052 17.627 4.366153 33.266582 13.545247
2005-07-07 07:42:29 51°24.472 2°53.061 17.6307 4.365836 33.263887 13.005896
2005-07-07 07:42:33 51°24.485 2°53.069 17.632 4.365836 33.263887 13.005896
2005-07-07 07:42:39 51°24.503 2°53.079 17.6321 4.365942 33.263002 13.848631
2005-07-07 07:42:44 51°24.518 2°53.085 17.6342 4.364782 33.252525 12.736221
2005-07-07 07:42:49 51°24.534 2°53.096 17.6331 4.363938 33.244744 13.612665
2005-07-07 07:42:54 51°24.549 2°53.102 17.6312 4.363622 33.242643 13.039606
2005-07-07 07:43:00 51°24.567 2°53.114 17.6302 4.363411 33.239659 12.466546
2005-07-07 07:43:04 51°24.58 2°53.12 17.6311 4.363411 33.239659 12.466546
2005-07-07 07:43:09 51°24.596 2°53.13 17.6299 4.362883 33.234573 12.196871
2005-07-07 07:43:13 51°24.61 2°53.138 17.6292 4.363094 33.235182 13.140734
2005-07-07 07:43:19 51°24.629 2°53.148 17.628 4.362461 33.226824 13.3767
2005-07-07 07:43:24 51°24.643 2°53.158 17.6283 4.362672 33.229214 13.578956
2005-07-07 07:43:29 51°24.66 2°53.166 17.6307 4.361829 33.219655 12.601383
2005-07-07 07:43:34 51°24.674 2°53.177 17.6299 4.361829 33.219655 12.601383
2005-07-07 07:43:38 51°24.69 2°53.18 17.6326 4.361618 33.22142 13.983469
2005-07-07 07:43:44 51°24.707 2°53.191 17.633 4.360774 33.214829 11.65752
2005-07-07 07:43:49 51°24.724 2°53.2 17.6339 4.360247 33.211525 13.477828
2005-07-07 07:43:53 51°24.736 2°53.208 17.6311 4.36109 33.216336 14.118306
2005-07-07 07:43:59 51°24.756 2°53.218 17.632 4.360247 33.209151 12.533965
2005-07-07 07:44:04 51°24.77 2°53.225 17.633 4.360247 33.209151 12.533965
2005-07-07 07:44:09 51°24.786 2°53.235 17.6329 4.358665 33.2028 11.994614
2005-07-07 07:44:13 51°24.799 2°53.24 17.6312 4.359298 33.202255 12.972187
2005-07-07 07:44:19 51°24.816 2°53.252 17.6306 4.358876 33.19807 12.297999
2005-07-07 07:44:24 51°24.832 2°53.259 17.6313 4.35877 33.195392 11.488973
2005-07-07 07:44:29 51°24.849 2°53.27 17.6302 4.357821 33.187311 12.904768
2005-07-07 07:44:33 51°24.862 2°53.276 17.6299 4.357821 33.187311 12.904768
2005-07-07 07:44:39 51°24.881 2°53.286 17.6299 4.357188 33.180738 12.062033
2005-07-07 07:44:44 51°24.894 2°53.295 17.6297 4.357083 33.178654 14.185725
2005-07-07 07:44:49 51°24.912 2°53.304 17.6255 4.356978 33.179535 16.579093
2005-07-07 07:44:53 51°24.924 2°53.312 17.6243 4.356029 33.173232 14.725076
2005-07-07 07:45:00 51°24.945 2°53.324 17.6245 4.354236 33.156783 12.533965
2005-07-07 07:45:04 51°24.957 2°53.33 17.6174 4.354236 33.156783 12.533965
2005-07-07 07:45:09 51°24.974 2°53.341 17.6185 4.355396 33.167844 13.444118
2005-07-07 07:45:14 51°24.989 2°53.349 17.6171 4.353708 33.154663 14.725076
2005-07-07 07:45:19 51°25.006 2°53.358 17.6157 4.354447 33.160949 14.691366
2005-07-07 07:45:24 51°25.02 2°53.365 17.6153 4.35413 33.15707 12.399127
2005-07-07 07:45:29 51°25.036 2°53.376 17.6142 4.354974 33.164845 13.646375
2005-07-07 07:45:33 51°25.049 2°53.384 17.6109 4.354974 33.164845 13.646375
2005-07-07 07:45:39 51°25.068 2°53.394 17.6122 4.354552 33.163624 11.927195
2005-07-07 07:45:44 51°25.082 2°53.403 17.6132 4.354763 33.168977 12.533965
2005-07-07 07:45:49 51°25.098 2°53.41 17.6155 4.355185 33.172569 13.3767
2005-07-07 07:45:53 51°25.111 2°53.421 17.6143 4.355607 33.178533 11.859777
2005-07-07 07:46:00 51°25.131 2°53.434 17.6165 4.3574 33.194989 11.960905
2005-07-07 07:46:04 51°25.145 2°53.439 17.6165 4.3574 33.194989 11.960905
2005-07-07 07:46:09 51°25.161 2°53.452 17.6176 4.356978 33.191989 12.23058
2005-07-07 07:46:14 51°25.176 2°53.459 17.615 4.3574 33.197362 14.623947
2005-07-07 07:46:17 51°25.187 2°53.466 17.6176 4.357294 33.197651 13.814922
2005-07-07 07:46:24 51°25.207 2°53.476 17.6186 4.358032 33.202159 14.118306
2005-07-07 07:46:29 51°25.225 2°53.487 17.6187 4.357083 33.195261 12.533965
2005-07-07 07:46:33 51°25.238 2°53.493 17.6215 4.357083 33.195261 12.533965
2005-07-07 07:46:39 51°25.254 2°53.504 17.6198 4.357611 33.197972 10.612529
2005-07-07 07:46:44 51°25.271 2°53.511 17.6256 4.356767 33.191379 9.736084
2005-07-07 07:46:49 51°25.287 2°53.524 17.6241 4.355712 33.181803 10.005759
2005-07-07 07:46:54 51°25.302 2°53.53 17.6268 4.356345 33.188379 11.11817
2005-07-07 07:46:59 51°25.319 2°53.541 17.6294 4.356767 33.18782 11.421554
2005-07-07 07:47:04 51°25.333 2°53.549 17.6341 4.356767 33.18782 11.421554
2005-07-07 07:47:09 51°25.35 2°53.559 17.6385 4.355607 33.180312 12.533965
2005-07-07 07:47:14 51°25.364 2°53.569 17.6423 4.355818 33.179143 12.432836
2005-07-07 07:47:19 51°25.382 2°53.574 17.6508 4.354869 33.171653 11.522683
2005-07-07 07:47:24 51°25.396 2°53.588 17.652 4.353814 33.161487 12.163161
2005-07-07 07:47:28 51°25.408 2°53.591 17.657 4.35645 33.183346 12.365418
2005-07-07 07:47:34 51°25.426 2°53.606 17.6621 4.35645 33.183346 12.365418
2005-07-07 07:47:39 51°25.443 2°53.614 17.6684 4.352443 33.146851 12.736221
2005-07-07 07:47:44 51°25.456 2°53.625 17.6739 4.351705 33.137605 12.365418
2005-07-07 07:47:49 51°25.472 2°53.631 17.6786 4.349912 33.118792 11.994614
2005-07-07 07:47:54 51°25.488 2°53.641 17.6826 4.349912 33.114651 13.34299
2005-07-07 07:48:00 51°25.506 2°53.652 17.6877 4.349279 33.105718 14.927332
2005-07-07 07:48:04 51°25.519 2°53.659 17.6917 4.349279 33.105718 14.927332
2005-07-07 07:48:09 51°25.536 2°53.668 17.6954 4.347803 33.089018 14.219435
2005-07-07 07:48:13 51°25.548 2°53.676 17.6992 4.346853 33.074446 12.736221
2005-07-07 07:48:19 51°25.568 2°53.687 17.7033 4.345271 33.05863 11.859777
2005-07-07 07:48:24 51°25.584 2°53.696 17.7058 4.343268 33.036872 12.668802
2005-07-07 07:48:29 51°25.599 2°53.703 17.7093 4.342846 33.026801 14.219435
2005-07-07 07:48:33 51°25.612 2°53.712 17.712 4.342846 33.026801 14.219435
2005-07-07 07:48:39 51°25.631 2°53.723 17.7156 4.341369 33.011305 11.927195
2005-07-07 07:48:44 51°25.648 2°53.73 17.7187 4.340526 32.999424 13.073315
2005-07-07 07:48:49 51°25.662 2°53.742 17.7212 4.339366 32.984858 13.275571
2005-07-07 07:48:54 51°25.677 2°53.748 17.7246 4.339155 32.980125 13.477828
2005-07-07 07:48:59 51°25.695 2°53.759 17.7274 4.338522 32.969458 11.994614
2005-07-07 07:49:04 51°25.708 2°53.768 17.7301 4.338522 32.969458 11.994614
2005-07-07 07:49:10 51°25.728 2°53.778 17.7319 4.337889 32.961145 11.65752
2005-07-07 07:49:13 51°25.739 2°53.784 17.7334 4.337045 32.952805 13.781212
2005-07-07 07:49:19 51°25.757 2°53.797 17.7357 4.335885 32.940017 12.028324
2005-07-07 07:49:24 51°25.772 2°53.804 17.7369 4.335569 32.933808 12.567674
2005-07-07 07:49:29 51°25.79 2°53.814 17.7382 4.33462 32.923403 13.275571
2005-07-07 07:49:33 51°25.802 2°53.82 17.7408 4.33462 32.923403 13.275571
2005-07-07 07:49:39 51°25.82 2°53.834 17.7425 4.334092 32.914234 12.702512
2005-07-07 07:49:44 51°25.837 2°53.839 17.7448 4.333354 32.905622 13.444118
2005-07-07 07:49:49 51°25.852 2°53.85 17.7462 4.335674 32.921208 11.522683
2005-07-07 07:49:53 51°25.865 2°53.857 17.7473 4.332089 32.891366 13.848631
2005-07-07 07:49:59 51°25.883 2°53.868 17.7498 4.330929 32.880351 12.567674
2005-07-07 07:50:04 51°25.897 2°53.877 17.7525 4.330929 32.880351 12.567674
2005-07-07 07:50:09 51°25.914 2°53.886 17.7538 4.33019 32.871745 12.399127
2005-07-07 07:50:13 51°25.926 2°53.896 17.7566 4.33135 32.880416 12.76993
2005-07-07 07:50:19 51°25.946 2°53.906 17.7593 4.329558 32.861109 12.500255
2005-07-07 07:50:24 51°25.959 2°53.915 17.7603 4.329452 32.858459 12.466546
2005-07-07 07:50:29 51°25.976 2°53.926 17.7628 4.328503 32.849824 11.556392
2005-07-07 07:50:34 51°25.991 2°53.934 17.7653 4.328503 32.849824 11.556392
2005-07-07 07:50:39 51°26.007 2°53.946 17.7661 4.327976 32.843597 13.005896
2005-07-07 07:50:44 51°26.021 2°53.956 17.7656 4.327237 32.835582 11.994614
2005-07-07 07:50:49 51°26.038 2°53.965 17.769 4.325866 32.822203 14.050888
2005-07-07 07:50:54 51°26.051 2°53.978 17.7711 4.325656 32.818662 11.826067
2005-07-07 07:50:59 51°26.069 2°53.987 17.7731 4.324601 32.809721 14.48911
2005-07-07 07:51:04 51°26.082 2°53.997 17.7741 4.324601 32.809721 14.48911
2005-07-07 07:51:09 51°26.099 2°54.007 17.7762 4.324601 32.805632 12.972187
2005-07-07 07:51:14 51°26.113 2°54.018 17.7777 4.324285 32.800031 11.724939
2005-07-07 07:51:19 51°26.13 2°54.027 17.78 4.324495 32.800068 11.050751
2005-07-07 07:51:24 51°26.144 2°54.039 17.7833 4.323335 32.789652 11.421554
2005-07-07 07:51:29 51°26.16 2°54.047 17.7847 4.323441 32.788795 12.028324
2005-07-07 07:51:33 51°26.173 2°54.059 17.787 4.323441 32.788795 12.028324
2005-07-07 07:51:39 51°26.192 2°54.068 17.7899 4.322914 32.78316 12.196871
2005-07-07 07:51:44 51°26.205 2°54.081 17.7898 4.323019 32.781137 12.567674
2005-07-07 07:51:49 51°26.222 2°54.092 17.7909 4.321648 32.768937 11.017042
2005-07-07 07:51:53 51°26.234 2°54.101 17.7893 4.320804 32.759457 12.163161
2005-07-07 07:52:00 51°26.255 2°54.114 17.7897 4.320804 32.757126 11.421554
2005-07-07 07:52:04 51°26.267 2°54.121 17.7878 4.320804 32.757126 11.421554
2005-07-07 07:52:09 51°26.284 2°54.134 17.7872 4.320172 32.750018 11.421554
2005-07-07 07:52:14 51°26.3 2°54.143 17.7881 4.320804 32.7513 12.432836
2005-07-07 07:52:19 51°26.315 2°54.154 17.7891 4.320066 32.74563 13.309281
2005-07-07 07:52:24 51°26.329 2°54.163 17.7867 4.320066 32.742718 12.129452
2005-07-07 07:52:29 51°26.346 2°54.175 17.7856 4.318801 32.731418 12.264289
2005-07-07 07:52:34 51°26.361 2°54.184 17.7842 4.318801 32.731418 12.264289
2005-07-07 07:52:40 51°26.379 2°54.196 17.7811 4.319433 32.735613 12.095742
2005-07-07 07:52:44 51°26.393 2°54.207 17.7813 4.319855 32.740349 11.253007
2005-07-07 07:52:49 51°26.409 2°54.216 17.7811 4.318379 32.72901 12.76993
2005-07-07 07:52:54 51°26.422 2°54.227 17.7809 4.318379 32.73192 11.724939
2005-07-07 07:52:59 51°26.44 2°54.236 17.7816 4.318801 32.733165 12.567674
2005-07-07 07:53:04 51°26.453 2°54.247 17.7835 4.318801 32.733165 12.567674
2005-07-07 07:53:09 51°26.47 2°54.257 17.7795 4.318906 32.734058 11.960905
2005-07-07 07:53:14 51°26.486 2°54.269 17.7777 4.318906 32.734058 12.095742
2005-07-07 07:53:17 51°26.495 2°54.273 17.7807 4.318906 32.736969 11.320426
2005-07-07 07:53:24 51°26.515 2°54.288 17.7798 4.319117 32.738173 11.151879
2005-07-07 07:53:29 51°26.531 2°54.297 17.7809 4.318273 32.731609 11.792358
2005-07-07 07:53:33 51°26.545 2°54.309 17.7759 4.318273 32.731609 11.792358
2005-07-07 07:53:39 51°26.563 2°54.318 17.7726 4.318273 32.732774 10.747366
2005-07-07 07:53:44 51°26.58 2°54.33 17.7696 4.318168 32.729552 10.578819
2005-07-07 07:53:49 51°26.594 2°54.343 17.7643 4.319222 32.740231 12.736221
2005-07-07 07:53:55 51°26.613 2°54.353 17.7579 4.319328 32.741706 11.994614
2005-07-07 07:54:00 51°26.627 2°54.364 17.7538 4.31859 32.736618 11.354136
2005-07-07 07:54:04 51°26.642 2°54.372 17.7493 4.31859 32.736618 11.354136
2005-07-07 07:54:09 51°26.657 2°54.383 17.7455 4.319222 32.741978 10.443982
2005-07-07 07:54:14 51°26.671 2°54.39 17.7456 4.319644 32.746134 11.185589
2005-07-07 07:54:19 51°26.688 2°54.403 17.7378 4.319433 32.745512 11.219298
2005-07-07 07:54:24 51°26.705 2°54.411 17.7335 4.320383 32.757631 11.219298
2005-07-07 07:54:29 51°26.72 2°54.422 17.7339 4.32091 32.765014 10.54511
2005-07-07 07:54:33 51°26.732 2°54.428 17.7332 4.32091 32.765014 10.54511
2005-07-07 07:54:40 51°26.752 2°54.441 17.7257 4.322175 32.77982 12.331708
2005-07-07 07:54:44 51°26.765 2°54.448 17.7246 4.323019 32.792223 10.949623
2005-07-07 07:54:49 51°26.781 2°54.459 17.7231 4.323968 32.804356 10.949623
2005-07-07 07:54:54 51°26.797 2°54.468 17.7209 4.324074 32.80817 10.915913
2005-07-07 07:54:59 51°26.811 2°54.48 17.6957 4.32439 32.813774 11.286717
2005-07-07 07:55:04 51°26.826 2°54.489 17.6801 4.32439 32.813774 11.286717
2005-07-07 07:55:09 51°26.842 2°54.497 17.6643 4.326921 32.838161 10.174306
2005-07-07 07:55:13 51°26.853 2°54.507 17.6497 4.326394 32.836028 10.882204
2005-07-07 07:55:19 51°26.871 2°54.518 17.6327 4.325972 32.834789 10.275435
2005-07-07 07:55:24 51°26.884 2°54.529 17.6177 4.326816 32.843116 9.870922
2005-07-07 07:55:29 51°26.901 2°54.537 17.6035 4.309838 32.70321 11.11817
2005-07-07 07:55:33 51°26.912 2°54.548 17.5979 4.309838 32.70321 11.11817
2005-07-07 07:55:40 51°26.932 2°54.56 17.5924 4.310893 32.719729 10.679947
2005-07-07 07:55:44 51°26.945 2°54.571 17.5826 4.313635 32.75524 10.477691
2005-07-07 07:55:49 51°26.959 2°54.577 17.5855 4.315427 32.782141 11.320426
2005-07-07 07:55:54 51°26.973 2°54.592 17.5825 4.315217 32.793218 11.050751
2005-07-07 07:55:59 51°26.991 2°54.6 17.582 4.316904 32.825705 11.556392